Not logged in
PANGAEA.
Data Publisher for Earth & Environmental Science

Behrens, Klaus (2016): Radiosonde measurements from station Lindenberg (2008-01) [dataset]. Meteorologisches Observatorium Potsdam, PANGAEA, https://doi.org/10.1594/PANGAEA.869209

Always quote citation above when using data! You can download the citation in several formats below.

Published: 2016-12-08DOI registered: 2017-01-05

RIS CitationBibTeX Citation ShareShow MapGoogle Earth

Other version:
Behrens, Klaus (2016): BSRN Station-to-archive file for station Lindenberg (2008-01) [dataset]. ftp://ftp.bsrn.awi.de/lin/lin0108.dat.gz
Coverage:
Latitude: 52.210000 * Longitude: 14.122000
Date/Time Start: 2008-01-01T00:00:00 * Date/Time End: 2008-01-31T18:00:00
Minimum ALTITUDE: 112 m * Maximum ALTITUDE: 37649 m
Event(s):
LIN (Lindenberg) * Latitude: 52.210000 * Longitude: 14.122000 * Date/Time: 1994-09-01T00:00:00 * Elevation: 125.0 m * Location: Germany * Method/Device: Monitoring station (MONS) * Comment: BSRN station no: 12; Surface type: cultivated; Topography type: hilly, rural; Horizon: doi:10.1594/PANGAEA.669521; Station scientist: Stefan Wacker (Stefan.Wacker@dwd.de)
Parameter(s):
#NameShort NameUnitPrincipal InvestigatorMethod/DeviceComment
DATE/TIMEDate/TimeBehrens, KlausGeocode
ALTITUDEAltitudemBehrens, KlausGeocode
Pressure, at given altitudePPPPhPaBehrens, KlausRadiosonde, Vaisala, RS92
Temperature, airTTT°CBehrens, KlausRadiosonde, Vaisala, RS92
Dew/frost pointTdTdTd°CBehrens, KlausRadiosonde, Vaisala, RS92
Wind directiondddegBehrens, KlausRadiosonde, Vaisala, RS92
Wind speedffm/sBehrens, KlausRadiosonde, Vaisala, RS92
Ozone, partial pressurepO3mPaBehrens, KlausRadiosonde, Vaisala, RS92
Size:
723603 data points

Data

Download dataset as tab-delimited text — use the following character encoding:


Date/Time

Altitude [m]

PPPP [hPa]

TTT [°C]

TdTdTd [°C]

dd [deg]

ff [m/s]

pO3 [mPa]
2008-01-01T00:0011210110.90.22804
2008-01-01T00:0013810080.50.22784
2008-01-01T00:0016410050.20.22775
2008-01-01T00:0019410010.10.12786
2008-01-01T00:00225997-0.2-0.22806
2008-01-01T00:00253994-0.4-0.42847
2008-01-01T00:00281990-0.6-0.62897
2008-01-01T00:00308987-0.8-0.82938
2008-01-01T00:00331984-0.9-0.92978
2008-01-01T00:00356981-1.0-1.03018
2008-01-01T00:00385977-1.2-1.23058
2008-01-01T00:00409974-1.4-1.43098
2008-01-01T00:00433971-1.4-1.43129
2008-01-01T00:00460968-1.3-1.33159
2008-01-01T00:00484965-1.4-1.43159
2008-01-01T00:00508962-0.9-0.931410
2008-01-01T00:00534959-1.1-1.331210
2008-01-01T00:00556957-1.1-3.331010
2008-01-01T00:00580954-1.2-5.430810
2008-01-01T00:00603951-0.8-7.43069
2008-01-01T00:00628948-0.4-7.53069
2008-01-01T00:006549450.0-7.73059
2008-01-01T00:006809420.0-7.53069
2008-01-01T00:00707939-0.1-7.43069
2008-01-01T00:00738935-0.2-8.130710
2008-01-01T00:00768932-0.3-8.730910
2008-01-01T00:00798928-0.6-8.531110
2008-01-01T00:00827925-0.8-8.531210
2008-01-01T00:00854922-1.1-9.031310
2008-01-01T00:00884918-1.3-8.931410
2008-01-01T00:00915915-1.6-9.031510
2008-01-01T00:00941912-1.9-9.131611
2008-01-01T00:00966909-2.1-9.331811
2008-01-01T00:00989906-2.3-9.331811
2008-01-01T00:001010904-2.5-9.431811
2008-01-01T00:001039900-2.8-9.531711
2008-01-01T00:001066897-3.1-9.831511
2008-01-01T00:001089895-3.3-9.831311
2008-01-01T00:001112892-3.5-10.031111
2008-01-01T00:001141889-3.8-10.531111
2008-01-01T00:001171886-4.0-10.731211
2008-01-01T00:001202882-4.3-10.631311
2008-01-01T00:001232879-4.5-10.831311
2008-01-01T00:001261875-4.8-10.831411
2008-01-01T00:001291872-5.0-10.831411
2008-01-01T00:001316869-5.2-10.931511
2008-01-01T00:001346866-5.5-11.131611
2008-01-01T00:001375863-5.8-11.231711
2008-01-01T00:001405859-5.9-11.331911
2008-01-01T00:001430857-6.1-11.432111
2008-01-01T00:001455854-6.3-11.432211
2008-01-01T00:001481851-6.6-11.532211
2008-01-01T00:001508848-6.8-11.532211
2008-01-01T00:001533845-7.0-11.532210
2008-01-01T00:001561843-7.3-11.732110
2008-01-01T00:001586840-7.5-11.532010
2008-01-01T00:001610837-7.8-11.731910
2008-01-01T00:001637834-8.0-11.631811
2008-01-01T00:001664831-8.2-11.631711
2008-01-01T00:001690829-8.4-11.831611
2008-01-01T00:001715826-8.6-12.031511
2008-01-01T00:001739823-8.8-12.031511
2008-01-01T00:001769820-9.1-12.231512
2008-01-01T00:001799817-9.4-12.331512
2008-01-01T00:001829814-9.8-12.631612
2008-01-01T00:001857811-9.9-12.531612
2008-01-01T00:001881808-10.1-12.531512
2008-01-01T00:001907806-10.3-12.531412
2008-01-01T00:001930803-10.6-12.431212
2008-01-01T00:001957800-10.8-12.631112
2008-01-01T00:001989797-11.0-12.931012
2008-01-01T00:002014795-11.1-13.031012
2008-01-01T00:002037792-11.2-13.431013
2008-01-01T00:002065789-11.5-13.631213
2008-01-01T00:002091787-11.8-13.631413
2008-01-01T00:002121783-11.9-13.331613
2008-01-01T00:002153780-12.2-13.131913
2008-01-01T00:002186777-12.5-13.232113
2008-01-01T00:002217774-12.6-12.632213
2008-01-01T00:002241771-12.6-12.632213
2008-01-01T00:002268769-12.8-12.832113
2008-01-01T00:002297766-13.0-13.232113
2008-01-01T00:002322763-13.2-13.432013
2008-01-01T00:002348761-13.5-13.532013
2008-01-01T00:002372758-13.8-13.832113
2008-01-01T00:002398756-13.9-13.932113
2008-01-01T00:002422753-14.1-14.132213
2008-01-01T00:002447751-14.3-14.332313
2008-01-01T00:002472748-14.6-14.632513
2008-01-01T00:002499746-14.8-14.932613
2008-01-01T00:002526743-14.8-15.232813
2008-01-01T00:002553740-15.0-15.632913
2008-01-01T00:002578738-15.3-15.932913
2008-01-01T00:002604735-15.5-15.932812
2008-01-01T00:002626733-15.6-16.332712
2008-01-01T00:002648731-15.8-16.532712
2008-01-01T00:002672729-16.0-16.732712
2008-01-01T00:002693727-16.2-16.632712
2008-01-01T00:002716724-16.4-16.832812
2008-01-01T00:002747721-16.8-17.532812
2008-01-01T00:002767720-16.8-17.432712
2008-01-01T00:002795717-17.1-17.532711
2008-01-01T00:002824714-17.3-17.732611
2008-01-01T00:002848712-17.6-17.932611
2008-01-01T00:002875709-17.8-18.032711
2008-01-01T00:002899707-18.0-18.232710
2008-01-01T00:002922705-18.2-18.332710
2008-01-01T00:002947702-18.4-18.432611
2008-01-01T00:002972700-18.5-18.532611
2008-01-01T00:003001697-18.8-18.832511
2008-01-01T00:003028695-18.9-18.932511
2008-01-01T00:003059692-19.2-19.232611
2008-01-01T00:003089689-19.4-19.432711
2008-01-01T00:003117687-19.6-19.632711
2008-01-01T00:003142684-19.8-19.832611
2008-01-01T00:003170682-20.0-20.032411
2008-01-01T00:003197679-20.2-20.232111
2008-01-01T00:003228676-20.4-20.431911
2008-01-01T00:003258674-20.6-20.631611
2008-01-01T00:003289671-20.7-20.731411
2008-01-01T00:003317668-21.0-21.031311
2008-01-01T00:003344666-21.2-21.231211
2008-01-01T00:003371663-21.3-21.331211
2008-01-01T00:003400661-21.4-21.431211
2008-01-01T00:003430658-21.7-21.731311
2008-01-01T00:003462655-21.9-22.031311
2008-01-01T00:003493653-22.1-22.131311
2008-01-01T00:003524650-22.4-22.531311
2008-01-01T00:003554647-22.7-22.931410
2008-01-01T00:003581645-23.0-23.331410
2008-01-01T00:003609642-23.2-23.531610
2008-01-01T00:003637640-23.1-24.23189
2008-01-01T00:003666637-23.3-24.73209
2008-01-01T00:003692635-23.5-25.43228
2008-01-01T00:003720633-23.7-25.83258
2008-01-01T00:003748630-23.8-26.23268
2008-01-01T00:003776628-24.1-26.73288
2008-01-01T00:003804625-24.3-29.03308
2008-01-01T00:003831623-24.5-29.53318
2008-01-01T00:003861621-24.8-29.73339
2008-01-01T00:003888618-25.0-30.23349
2008-01-01T00:003914616-25.2-30.23359
2008-01-01T00:003939614-25.4-30.433510
2008-01-01T00:003967612-25.7-30.733510
2008-01-01T00:003995609-25.9-30.433510
2008-01-01T00:004023607-26.1-30.633510
2008-01-01T00:004048605-26.3-31.133511
2008-01-01T00:004078602-26.6-31.633611
2008-01-01T00:004102600-26.8-31.633611
2008-01-01T00:004127598-27.0-31.933611
2008-01-01T00:004150596-27.1-32.533611
2008-01-01T00:004175594-27.3-33.233711
2008-01-01T00:004199592-27.5-33.633811
2008-01-01T00:004226590-27.8-33.934011
2008-01-01T00:004251588-28.0-33.934211
2008-01-01T00:004277586-28.2-34.434411
2008-01-01T00:004305584-28.3-35.434711
2008-01-01T00:004334581-28.5-36.434911
2008-01-01T00:004360579-28.6-37.235010
2008-01-01T00:004382577-28.8-37.835110
2008-01-01T00:004405575-29.0-38.035110
2008-01-01T00:004429573-29.2-38.035110
2008-01-01T00:004452572-29.3-38.335010
2008-01-01T00:004475570-29.5-38.035010
2008-01-01T00:004500568-29.8-38.135010
2008-01-01T00:004533565-30.0-38.335010
2008-01-01T00:004562563-30.3-38.13519
2008-01-01T00:004588561-30.5-38.13529
2008-01-01T00:004619558-30.7-38.53549
2008-01-01T00:004650556-31.0-39.03558
2008-01-01T00:004673554-31.2-39.43568
2008-01-01T00:004696552-31.4-39.83558
2008-01-01T00:004727550-31.7-39.73547
2008-01-01T00:004759547-32.0-39.73537
2008-01-01T00:004782546-32.2-39.93526
2008-01-01T00:004816543-32.4-41.03506
2008-01-01T00:004845541-32.73486
2008-01-01T00:004875538-32.9-43.73466
2008-01-01T00:004909536-33.2-44.33436
2008-01-01T00:004943533-33.4-45.03426
2008-01-01T00:004976531-33.7-45.33416
2008-01-01T00:005005529-33.8-45.73417
2008-01-01T00:005032527-33.9-45.83417
2008-01-01T00:005059525-34.1-46.33427
2008-01-01T00:005087522-34.3-46.23438
2008-01-01T00:005115520-34.5-46.03448
2008-01-01T00:005143518-34.8-46.63458
2008-01-01T00:005168516-35.0-46.83459
2008-01-01T00:005194515-35.2-47.03449
2008-01-01T00:005219513-35.4-46.93429
2008-01-01T00:005244511-35.6-47.034110
2008-01-01T00:005275509-35.9-46.434010
2008-01-01T00:005298507-36.1-46.934010
2008-01-01T00:005321505-36.3-46.534010
2008-01-01T00:005343504-36.4-45.834210
2008-01-01T00:005375501-36.7-45.934510
2008-01-01T00:005404499-36.9-45.834810
2008-01-01T00:005429497-37.1-45.835010
2008-01-01T00:005453496-37.3-46.035010
2008-01-01T00:005478494-37.5-46.234910
2008-01-01T00:005503492-37.7-46.634610
2008-01-01T00:005525490-38.0-46.634310
2008-01-01T00:005551489-38.1-46.734210
2008-01-01T00:005576487-38.3-46.934111
2008-01-01T00:005603485-38.5-47.134211
2008-01-01T00:005637483-38.8-48.334411
2008-01-01T00:005667480-38.6-48.934612
2008-01-01T00:005696478-38.8-49.934913
2008-01-01T00:005725476-38.9-50.335113
2008-01-01T00:005751475-38.9-50.735214
2008-01-01T00:005779473-38.9-51.035314
2008-01-01T00:005808471-38.9-51.335414
2008-01-01T00:005839469-39.1-51.935614
2008-01-01T00:005874466-39.3-52.035714
2008-01-01T00:005905464-39.3-52.035814
2008-01-01T00:005931462-39.1-52.235914
2008-01-01T00:005960460-39.2-52.735914
2008-01-01T00:005987459-39.2-53.135914
2008-01-01T00:006005457-39.3-52.835714
2008-01-01T00:006031456-39.2-51.335515
2008-01-01T00:006059454-39.3-52.035315
2008-01-01T00:006086452-39.4-52.935216
2008-01-01T00:006109450-39.4-52.535116
2008-01-01T00:006135449-39.7-52.435116
2008-01-01T00:006163447-39.8-52.535217
2008-01-01T00:006195445-40.0-53.435317
2008-01-01T00:006220443-40.2-53.635417
2008-01-01T00:006245442-40.2-53.235517
2008-01-01T00:006278439-40.1-53.535517
2008-01-01T00:006302438-40.3-53.735418
2008-01-01T00:006326436-40.4-53.435319
2008-01-01T00:006352435-40.4-53.835220
2008-01-01T00:006375433-40.4-54.635121
2008-01-01T00:006410431-40.5-55.135122
2008-01-01T00:006440429-40.5-55.135222
2008-01-01T00:006469427-40.7-55.335323
2008-01-01T00:006504425-40.8-55.935523
2008-01-01T00:006527424-40.9-56.435623
2008-01-01T00:006544423-40.9-56.435623
2008-01-01T00:006566421-41.0-56.535623
2008-01-01T00:006595419-41.0-59.635523
2008-01-01T00:006632417-41.0-59.635423
2008-01-01T00:006659415-41.0-58.935323
2008-01-01T00:006685414-41.1-58.935223
2008-01-01T00:006713412-41.2-59.035224
2008-01-01T00:006735411-41.3-58.535124
2008-01-01T00:006761409-41.5-58.635125
2008-01-01T00:006789408-41.6-59.435125
2008-01-01T00:006808406-41.7-59.535125
2008-01-01T00:006828405-41.6-59.435225
2008-01-01T00:006851404-41.6-58.735224
2008-01-01T00:006876402-41.6-58.735224
2008-01-01T00:006903401-41.6-59.435223
2008-01-01T00:006933399-41.7-59.535223
2008-01-01T00:006964397-41.7-60.235224
2008-01-01T00:006986396-41.7-60.235224
2008-01-01T00:007008395-41.9-60.335324
2008-01-01T00:007037393-41.8-61.035325
2008-01-01T00:007068391-41.8-61.035225
2008-01-01T00:007093390-41.9-62.035225
2008-01-01T00:007114388-41.9-62.035126
2008-01-01T00:007143387-41.9-59.635027
2008-01-01T00:007182385-42.1-59.834927
2008-01-01T00:007216383-42.3-60.734928
2008-01-01T00:007249381-42.6-60.234929
2008-01-01T00:007282379-42.8-59.835030
2008-01-01T00:007309377-43.0-59.335031
2008-01-01T00:007345375-43.1-60.735131
2008-01-01T00:007377374-42.8-60.435231
2008-01-01T00:007403372-42.8-59.235231
2008-01-01T00:007426371-42.8-58.635231
2008-01-01T00:007449370-42.9-58.735231
2008-01-01T00:007472368-43.1-58.935231
2008-01-01T00:007496367-43.2-59.535132
2008-01-01T00:007528365-43.2-60.135032
2008-01-01T00:007563363-43.4-60.334932
2008-01-01T00:007593362-43.6-59.934933
2008-01-01T00:007619360-43.8-60.634934
2008-01-01T00:007643359-43.9-60.735034
2008-01-01T00:007666358-44.1-60.935135
2008-01-01T00:007691357-44.3-61.735235
2008-01-01T00:007717355-44.4-62.535236
2008-01-01T00:007740354-44.6-64.235236
2008-01-01T00:007765353-44.6-64.235237
2008-01-01T00:007796351-44.7-65.335137
2008-01-01T00:007819350-44.7-65.335138
2008-01-01T00:007841349-44.6-65.235138
2008-01-01T00:007864348-44.6-65.235138
2008-01-01T00:007888346-44.7-64.335139
2008-01-01T00:007923344-44.8-65.335139
2008-01-01T00:007953343-44.8-65.335140
2008-01-01T00:007972342-44.9-65.435140
2008-01-01T00:007989341-45.0-64.635140
2008-01-01T00:008008340-45.0-65.535040
2008-01-01T00:008028339-45.1-65.635039
2008-01-01T00:008048338-45.1-66.735039
2008-01-01T00:008067337-45.1-66.734938
2008-01-01T00:008085336-45.1-66.734938
2008-01-01T00:008106335-45.2-66.734938
2008-01-01T00:008128334-45.2-66.734937
2008-01-01T00:008150333-45.3-66.834937
2008-01-01T00:008175332-45.4-66.934936
2008-01-01T00:008208330-45.4-66.934936
2008-01-01T00:008230329-45.4-66.934836
2008-01-01T00:008250328-45.6-66.034736
2008-01-01T00:008271327-45.6-66.034736
2008-01-01T00:008292326-45.7-66.134636
2008-01-01T00:008322324-45.8-66.234637
2008-01-01T00:008353323-45.9-64.534637
2008-01-01T00:008375322-46.0-64.634637
2008-01-01T00:008397321-46.1-63.934538
2008-01-01T00:008418320-46.2-64.034538
2008-01-01T00:008438319-46.2-63.334538
2008-01-01T00:008460318-46.3-63.434538
2008-01-01T00:008484317-46.4-63.534439
2008-01-01T00:008509315-46.5-63.634439
2008-01-01T00:008538314-46.8-63.834439
2008-01-01T00:008571313-47.0-64.734439
2008-01-01T00:008596311-46.8-64.534440
2008-01-01T00:008622310-46.9-64.634440
2008-01-01T00:008654309-47.2-64.234440
2008-01-01T00:008677308-47.3-63.134541
2008-01-01T00:008700306-47.4-62.634541
2008-01-01T00:008721306-47.6-63.334540
2008-01-01T00:008743305-47.7-63.434640
2008-01-01T00:008766303-47.9-63.634640
2008-01-01T00:008791302-48.1-64.334640
2008-01-01T00:008817301-48.3-64.534740
2008-01-01T00:008843300-48.4-64.634740
2008-01-01T00:008868299-48.5-64.734840
2008-01-01T00:008892298-48.6-64.734840
2008-01-01T00:008912297-48.7-64.834940
2008-01-01T00:008934296-48.9-65.034940
2008-01-01T00:008955295-49.0-65.734940
2008-01-01T00:008978294-49.2-68.135041
2008-01-01T00:009001293-49.4-68.235041
2008-01-01T00:009024292-49.5-68.335041
2008-01-01T00:009047291-49.735141
2008-01-01T00:009067290-49.8-68.635141
2008-01-01T00:009090289-49.8-68.635041
2008-01-01T00:009114288-49.735041
2008-01-01T00:009136287-49.9-68.735040
2008-01-01T00:009158286-50.0-67.935040
2008-01-01T00:009179285-50.1-68.034939
2008-01-01T00:009197284-50.2-67.434939
2008-01-01T00:009217283-50.2-68.134938
2008-01-01T00:009237282-50.3-68.235038
2008-01-01T00:009257282-50.4-68.335038
2008-01-01T00:009277281-50.4-69.135138
2008-01-01T00:009297280-50.4-68.335238
2008-01-01T00:009318279-50.4-68.335338
2008-01-01T00:009341278-50.5-68.435337
2008-01-01T00:009366277-50.6-68.535437
2008-01-01T00:009393276-50.6-68.535537
2008-01-01T00:009416275-50.4-68.335536
2008-01-01T00:009436274-50.4-68.335635
2008-01-01T00:009456273-50.5-68.435635
2008-01-01T00:009478272-50.4-68.335734
2008-01-01T00:009510271-50.2-68.935734
2008-01-01T00:009541270-50.2-68.135833
2008-01-01T00:009562269-50.3-69.035832
2008-01-01T00:009581268-50.3-69.035832
2008-01-01T00:009602267-50.3-69.035831
2008-01-01T00:009624266-50.3-69.035731
2008-01-01T00:009643265-50.3-69.035730
2008-01-01T00:009663265-50.3-69.035730
2008-01-01T00:009684264-50.4-70.035630
2008-01-01T00:009705263-50.4-69.135630
2008-01-01T00:009726262-50.3-69.935529
2008-01-01T00:009747261-50.3-69.935429
2008-01-01T00:009770260-50.3-69.935328
2008-01-01T00:009796259-50.3-69.935228
2008-01-01T00:009821258-50.4-67.635127
2008-01-01T00:009845257-50.5-67.635027
2008-01-01T00:009865256-50.6-68.534926
2008-01-01T00:009885256-50.6-68.534826
2008-01-01T00:009905255-50.7-68.534726
2008-01-01T00:009926254-50.8-67.934625
2008-01-01T00:009944253-50.6-67.734625
2008-01-01T00:009965253-50.3-67.534524
2008-01-01T00:009985252-50.4-67.634523
2008-01-01T00:0010010251-50.5-68.434623
2008-01-01T00:0010037250-50.5-68.434522
2008-01-01T00:0010059249-50.6-67.734522
2008-01-01T00:0010080248-50.5-67.634422
2008-01-01T00:0010103247-50.4-67.634322
2008-01-01T00:0010126246-50.4-67.634222
2008-01-01T00:0010149246-50.5-67.634223
2008-01-01T00:0010171245-50.7-68.534123
2008-01-01T00:0010190244-50.8-68.634124
2008-01-01T00:0010214243-51.0-68.834124
2008-01-01T00:0010236242-51.1-68.934025
2008-01-01T00:0010256242-51.1-68.934025
2008-01-01T00:0010277241-51.3-69.834125
2008-01-01T00:0010298240-51.4-69.934125
2008-01-01T00:0010318239-51.6-70.134125
2008-01-01T00:0010338238-51.8-70.334126
2008-01-01T00:0010359238-52.0-71.334126
2008-01-01T00:0010382237-52.1-71.434026
2008-01-01T00:0010405236-52.3-71.634026
2008-01-01T00:0010431235-52.5-71.734026
2008-01-01T00:0010458234-52.5-70.934027
2008-01-01T00:0010482233-52.2-70.634027
2008-01-01T00:0010504232-52.1-70.534127
2008-01-01T00:0010526232-52.2-69.834227
2008-01-01T00:0010545231-52.2-69.834327
2008-01-01T00:0010565230-52.2-69.834527
2008-01-01T00:0010586230-52.1-70.534627
2008-01-01T00:0010607229-52.0-71.334827
2008-01-01T00:0010628228-52.0-71.334926
2008-01-01T00:0010651227-51.9-73.435026
2008-01-01T00:0010674226-51.7-73.335126
2008-01-01T00:0010694226-51.5-73.135326
2008-01-01T00:0010714225-51.5-71.935426
2008-01-01T00:0010733224-51.4-71.835526
2008-01-01T00:0010751224-51.4-71.835726
2008-01-01T00:0010770223-51.3-71.835826
2008-01-01T00:0010789222-51.0-71.535826
2008-01-01T00:0010808222-50.6-72.435925
2008-01-01T00:0010828221-50.3-72.135925
2008-01-01T00:0010848220-50.3-72.135924
2008-01-01T00:0010869220-50.4-72.235923
2008-01-01T00:0010889219-50.4-72.235823
2008-01-01T00:0010911218-50.2-72.135722
2008-01-01T00:0010932218-50.2-72.135621
2008-01-01T00:0010953217-50.3-73.635521
2008-01-01T00:0010976216-50.2-72.135320
2008-01-01T00:0011000215-50.2-72.135120
2008-01-01T00:0011024215-50.3-72.134820
2008-01-01T00:0011049214-50.3-72.134620
2008-01-01T00:0011074213-50.3-70.934420
2008-01-01T00:0011094212-50.4-72.234320
2008-01-01T00:0011114212-50.4-72.234221
2008-01-01T00:0011134211-50.4-72.234221
2008-01-01T00:0011155210-50.5-72.334221
2008-01-01T00:0011176210-50.5-72.334221
2008-01-01T00:0011196209-50.2-72.134222
2008-01-01T00:0011217208-50.2-72.134222
2008-01-01T00:0011238208-50.2-72.134222
2008-01-01T00:0011259207-50.3-72.134222
2008-01-01T00:0011281206-50.1-72.034222
2008-01-01T00:0011303206-50.0-73.434121
2008-01-01T00:0011330205-49.7-73.134120
2008-01-01T00:0011361204-49.2-72.734119
2008-01-01T00:0011391203-49.0-72.634017
2008-01-01T00:0011424202-48.8-72.434016
2008-01-01T00:0011448201-48.6-72.234115
2008-01-01T00:0011470200-48.2-71.934214
2008-01-01T00:0011492200-48.2-71.934213
2008-01-01T00:0011513199-48.2-71.934313
2008-01-01T00:0011537198-48.1-71.834412
2008-01-01T00:0011557198-48.0-71.834412
2008-01-01T00:0011578197-47.7-71.534412
2008-01-01T00:0011599197-47.5-71.434512
2008-01-01T00:0011619196-47.5-71.434612
2008-01-01T00:0011640195-47.4-71.334813
2008-01-01T00:0011663195-47.5-71.434913
2008-01-01T00:0011684194-47.6-71.435113
2008-01-01T00:0011707193-47.7-71.535213
2008-01-01T00:0011729193-47.9-71.735314
2008-01-01T00:0011750192-48.0-71.835314
2008-01-01T00:0011771191-48.2-71.935414
2008-01-01T00:0011791191-48.4-72.135414
2008-01-01T00:0011812190-48.6-72.235514
2008-01-01T00:0011831190-48.7-72.335514
2008-01-01T00:0011850189-48.9-72.535614
2008-01-01T00:0011870189-49.0-72.635715
2008-01-01T00:0011890188-49.2-72.735815
2008-01-01T00:0011910187-49.3-72.835915
2008-01-01T00:0011931187-49.4-72.936015
2008-01-01T00:0011951186-49.5-73.0115
2008-01-01T00:0011972186-49.7-73.1215
2008-01-01T00:0011993185-49.9-73.3115
2008-01-01T00:0012015184-50.0-73.436015
2008-01-01T00:0012035184-50.0-73.435815
2008-01-01T00:0012060183-49.6-73.035515
2008-01-01T00:0012093182-49.3-72.835315
2008-01-01T00:0012122181-49.5-73.035115
2008-01-01T00:0012148181-49.7-73.134915
2008-01-01T00:0012170180-49.8-71.734814
2008-01-01T00:0012191180-49.7-73.134714
2008-01-01T00:0012211179-49.9-73.334614
2008-01-01T00:0012231178-50.0-73.434514
2008-01-01T00:0012251178-50.0-73.434413
2008-01-01T00:0012271177-50.1-73.434313
2008-01-01T00:0012290177-50.3-73.634213
2008-01-01T00:0012311176-50.3-73.634113
2008-01-01T00:0012331176-50.3-73.634013
2008-01-01T00:0012351175-50.5-73.833813
2008-01-01T00:0012371175-50.6-73.833713
2008-01-01T00:0012393174-50.7-73.933613
2008-01-01T00:0012414174-50.8-74.033513
2008-01-01T00:0012435173-50.8-74.033312
2008-01-01T00:0012456172-50.9-74.133112
2008-01-01T00:0012478172-51.0-74.232812
2008-01-01T00:0012508171-51.0-74.232511
2008-01-01T00:0012535170-51.2-74.332111
2008-01-01T00:0012557170-51.3-73.031611
2008-01-01T00:0012580169-51.1-72.831311
2008-01-01T00:0012602169-51.0-72.731012
2008-01-01T00:0012623168-51.1-72.830912
2008-01-01T00:0012645167-51.0-72.730812
2008-01-01T00:0012667167-51.0-72.730813
2008-01-01T00:0012689166-50.8-72.630913
2008-01-01T00:0012712166-50.7-72.531013
2008-01-01T00:0012734165-50.6-72.431214
2008-01-01T00:0012755165-50.7-72.531314
2008-01-01T00:0012778164-50.8-74.031514
2008-01-01T00:0012802164-50.9-74.131714
2008-01-01T00:0012827163-51.1-74.232014
2008-01-01T00:0012852162-51.3-74.432314
2008-01-01T00:0012875162-51.4-74.532513
2008-01-01T00:0012897161-51.2-74.332714
2008-01-01T00:0012922161-50.8-74.032814
2008-01-01T00:0012946160-50.6-73.832814
2008-01-01T00:0012970159-50.6-73.832714
2008-01-01T00:0012997159-50.8-74.032615
2008-01-01T00:0013021158-51.0-74.232515
2008-01-01T00:0013042158-51.2-74.332415
2008-01-01T00:0013065157-51.3-74.432415
2008-01-01T00:0013086157-51.5-74.632516
2008-01-01T00:0013107156-51.6-74.632616
2008-01-01T00:0013128155-51.5-74.632816
2008-01-01T00:0013148155-51.3-74.433016
2008-01-01T00:0013167155-50.6-73.833316
2008-01-01T00:0013187154-50.3-73.633515
2008-01-01T00:0013205154-50.1-73.433615
2008-01-01T00:0013224153-50.1-73.433815
2008-01-01T00:0013242153-50.1-73.433916
2008-01-01T00:0013261152-50.2-73.534016
2008-01-01T00:0013279152-50.3-73.634116
2008-01-01T00:0013299151-50.4-73.734216
2008-01-01T00:0013317151-50.4-73.734316
2008-01-01T00:0013336151-50.5-73.834417
2008-01-01T00:0013354150-50.5-73.834516
2008-01-01T00:0013372150-50.5-73.834616
2008-01-01T00:0013389149-50.5-73.834616
2008-01-01T00:0013409149-50.5-73.834615
2008-01-01T00:0013429148-50.3-73.634615
2008-01-01T00:0013449148-50.2-73.534414
2008-01-01T00:0013467148-50.3-73.634314
2008-01-01T00:0013485147-50.4-73.734114
2008-01-01T00:0013503147-50.5-73.833914
2008-01-01T00:0013521146-50.2-73.533714
2008-01-01T00:0013539146-50.0-73.433514
2008-01-01T00:0013557146-49.9-73.333414
2008-01-01T00:0013576145-49.8-73.233414
2008-01-01T00:0013597145-49.9-73.333513
2008-01-01T00:0013618144-50.1-73.433513
2008-01-01T00:0013638144-50.1-73.433613
2008-01-01T00:0013659143-50.1-73.433713
2008-01-01T00:0013680143-50.1-73.433812
2008-01-01T00:0013702142-50.2-73.533913
2008-01-01T00:0013728142-50.4-73.734013
2008-01-01T00:0013752141-50.6-73.834013
2008-01-01T00:0013778141-50.8-74.033914
2008-01-01T00:0013804140-51.0-74.233915
2008-01-01T00:0013828140-51.1-74.233815
2008-01-01T00:0013853139-51.1-74.233715
2008-01-01T00:0013877139-51.1-76.133715
2008-01-01T00:0013903138-50.8-74.033714
2008-01-01T00:0013930138-50.7-73.933613
2008-01-01T00:0013957137-50.8-74.033613
2008-01-01T00:0013983136-51.0-74.233512
2008-01-01T00:0014011136-51.2-74.333312
2008-01-01T00:0014037135-51.4-74.533111
2008-01-01T00:0014065135-51.4-74.532911
2008-01-01T00:0014094134-51.4-74.532712
2008-01-01T00:0014123133-51.3-74.432612
2008-01-01T00:0014152133-50.9-75.932612
2008-01-01T00:0014179132-50.3-75.532713
2008-01-01T00:0014206132-50.2-75.432713
2008-01-01T00:0014232131-50.2-75.432813
2008-01-01T00:0014259131-50.4-75.532813
2008-01-01T00:0014286130-50.5-73.832713
2008-01-01T00:0014312130-50.6-75.732713
2008-01-01T00:0014339129-50.7-75.832613
2008-01-01T00:0014365129-50.9-75.932613
2008-01-01T00:0014390128-51.0-76.032613
2008-01-01T00:0014415128-51.2-76.232613
2008-01-01T00:0014439127-51.3-76.232713
2008-01-01T00:0014464127-51.4-76.332813
2008-01-01T00:0014488126-51.4-76.332913
2008-01-01T00:0014512126-51.5-76.433013
2008-01-01T00:0014536125-51.6-76.533212
2008-01-01T00:0014559125-51.7-76.633412
2008-01-01T00:0014581124-51.8-76.633512
2008-01-01T00:0014604124-52.0-76.833711
2008-01-01T00:0014628124-52.2-77.033911
2008-01-01T00:0014649123-52.3-77.034110
2008-01-01T00:0014671123-52.434310
2008-01-01T00:0014695122-52.6-77.334510
2008-01-01T00:0014717122-52.7-77.334710
2008-01-01T00:0014738121-52.9-77.53509
2008-01-01T00:0014759121-53.0-77.63529
2008-01-01T00:0014778121-53.1-77.73559
2008-01-01T00:0014799120-53.3-77.83579
2008-01-01T00:0014817120-53.4-77.93588
2008-01-01T00:0014837120-53.6-78.13598
2008-01-01T00:0014858119-53.7-78.118
2008-01-01T00:0014878119-53.8-78.227
2008-01-01T00:0014897118-53.9-78.337
2008-01-01T00:0014918118-54.0-76.647
2008-01-01T00:0014939118-54.2-76.757
2008-01-01T00:0014960117-54.4-78.757
2008-01-01T00:0014981117-54.6-78.966
2008-01-01T00:0015001117-54.8-79.066
2008-01-01T00:0015022116-55.0-79.256
2008-01-01T00:0015041116-55.1-79.246
2008-01-01T00:0015061115-55.3-79.435
2008-01-01T00:0015081115-55.5-79.615
2008-01-01T00:0015101115-55.5-79.63584
2008-01-01T00:0015121114-55.4-79.53534
2008-01-01T00:0015141114-55.3-79.43463
2008-01-01T00:0015161114-55.4-79.53373
2008-01-01T00:0015188113-55.5-79.63273
2008-01-01T00:0015216113-55.6-79.63173
2008-01-01T00:0015242112-55.9-79.93084
2008-01-01T00:0015264112-56.0-80.02994
2008-01-01T00:0015287111-56.12914
2008-01-01T00:0015310111-56.3-80.22855
2008-01-01T00:0015331111-56.3-80.22815
2008-01-01T00:0015351110-56.4-78.52786
2008-01-01T00:0015372110-56.6-80.42766
2008-01-01T00:0015393110-56.7-80.52747
2008-01-01T00:0015415109-56.8-80.62728
2008-01-01T00:0015439109-57.0-80.82698
2008-01-01T00:0015467108-57.1-79.12689
2008-01-01T00:0015494108-57.1-79.126710
2008-01-01T00:0015519107-57.2-79.226811
2008-01-01T00:0015544107-57.3-79.226911
2008-01-01T00:0015569107-57.2-79.227111
2008-01-01T00:0015594106-57.3-79.227412
2008-01-01T00:0015620106-57.4-79.327712
2008-01-01T00:0015645105-57.3-79.227912
2008-01-01T00:0015671105-57.4-79.328112
2008-01-01T00:0015697104-57.5-79.428312
2008-01-01T00:0015724104-57.2-79.228512
2008-01-01T00:0015752104-57.2-79.228712
2008-01-01T00:0015779103-57.4-79.328912
2008-01-01T00:0015806103-57.5-79.429112
2008-01-01T00:0015834102-57.6-79.529412
2008-01-01T00:0015860102-57.7-79.629712
2008-01-01T00:0015887101-57.5-79.430111
2008-01-01T00:0015912101-57.1-79.130411
2008-01-01T00:0015939101-56.9-78.930611
2008-01-01T00:0015966100-56.730711
2008-01-01T00:0015991100-56.5-78.630611
2008-01-01T00:001601999-56.5-78.630411
2008-01-01T00:001604599-56.2-78.430111
2008-01-01T00:001607098-56.3-78.429912
2008-01-01T00:001609498-56.4-78.529712
2008-01-01T00:001611798-56.5-78.629613
2008-01-01T00:001614097-56.4-77.129513
2008-01-01T00:001616397-56.3-78.429514
2008-01-01T00:001618497-56.2-78.429514
2008-01-01T00:001620596-56.3-78.429615
2008-01-01T00:001622596-56.3-78.429615
2008-01-01T00:001624596-56.3-78.429715
2008-01-01T00:001626496-56.4-78.529916
2008-01-01T00:001628295-56.4-78.530116
2008-01-01T00:001630095-56.4-78.530416
2008-01-01T00:001631795-56.0-78.230616
2008-01-01T00:001633594-55.7-78.030916
2008-01-01T00:001635194-55.1-77.531116
2008-01-01T00:001636794-55.0-77.431415
2008-01-01T00:001638494-54.8-77.231615
2008-01-01T00:001640093-54.9-79.131815
2008-01-01T00:001641693-54.7-78.932114
2008-01-01T00:001643393-54.5-78.832315
2008-01-01T00:001644993-54.4-78.732415
2008-01-01T00:001646593-54.1-76.732415
2008-01-01T00:001648292-53.9-76.532516
2008-01-01T00:001649792-53.7-76.332416
2008-01-01T00:001651492-53.7-76.332416
2008-01-01T00:001653292-53.8-76.432517
2008-01-01T00:001655191-53.9-76.532516
2008-01-01T00:001657191-53.7-76.332716
2008-01-01T00:001659191-53.7-76.332816
2008-01-01T00:001661390-53.7-76.333016
2008-01-01T00:001663790-53.3-77.833215
2008-01-01T00:001666190-53.1-75.933415
2008-01-01T00:001668589-52.5-75.433614
2008-01-01T00:001671189-52.3-75.233914
2008-01-01T00:001673589-52.3-75.234114
2008-01-01T00:001676188-52.3-75.234314
2008-01-01T00:001678888-52.434513
2008-01-01T00:001681588-52.2-77.034613
2008-01-01T00:001684187-52.1-76.934712
2008-01-01T00:001686887-52.2-77.034812
2008-01-01T00:001689787-52.2-77.034811
2008-01-01T00:001692386-52.1-76.934810
2008-01-01T00:001695186-52.2-77.034710
2008-01-01T00:001697985-52.43479
2008-01-01T00:001700685-52.7-77.33479
2008-01-01T00:001703385-52.9-77.53468
2008-01-01T00:001706384-53.1-77.73468
2008-01-01T00:001709284-53.4-77.93457
2008-01-01T00:001711984-53.6-78.13447
2008-01-01T00:001714583-53.8-78.23436
2008-01-01T00:001717283-54.1-78.53416
2008-01-01T00:001719983-54.3-78.63405
2008-01-01T00:001722782-54.5-78.83395
2008-01-01T00:001725582-54.8-79.03384
2008-01-01T00:001728282-55.0-79.23364
2008-01-01T00:001730981-55.2-79.33333
2008-01-01T00:001733481-55.4-77.73272
2008-01-01T00:001736081-55.5-77.83162
2008-01-01T00:001738580-55.6-77.92971
2008-01-01T00:001740980-55.6-79.62761
2008-01-01T00:001743380-55.6-79.62631
2008-01-01T00:001745479-55.7-79.72571
2008-01-01T00:001747779-55.6-79.62591
2008-01-01T00:001749979-55.6-79.62671
2008-01-01T00:001752279-55.5-79.62811
2008-01-01T00:001754578-55.6-79.62961
2008-01-01T00:001756878-55.7-79.73071
2008-01-01T00:001758978-55.9-79.93131
2008-01-01T00:001761277-56.0-78.23171
2008-01-01T00:001763377-56.0-78.23211
2008-01-01T00:001765377-56.1-78.33251
2008-01-01T00:001767477-56.3-78.43291
2008-01-01T00:001769476-56.5-78.63331
2008-01-01T00:001771376-56.6-78.73371
2008-01-01T00:001773376-56.73411
2008-01-01T00:001775276-56.8-80.63462
2008-01-01T00:001777275-57.0-80.83502
2008-01-01T00:001779175-57.1-80.83552
2008-01-01T00:001781175-57.3-79.23592
2008-01-01T00:001783075-57.3-79.222
2008-01-01T00:001784975-57.4-79.342
2008-01-01T00:001786974-57.5-79.452
2008-01-01T00:001788974-57.2-79.263
2008-01-01T00:001791074-57.2-79.263
2008-01-01T00:001793074-57.3-81.053
2008-01-01T00:001795073-57.5-81.243
2008-01-01T00:001796973-57.7-79.623
2008-01-01T00:001799073-57.9-79.73604
2008-01-01T00:001801173-58.0-79.83564
2008-01-01T00:001803072-58.1-79.93524
2008-01-01T00:001805272-58.3-80.13464
2008-01-01T00:001807372-58.4-80.13414
2008-01-01T00:001809572-58.3-80.13364
2008-01-01T00:001811871-58.2-80.03325
2008-01-01T00:001813971-58.3-80.13285
2008-01-01T00:001816271-58.5-80.23255
2008-01-01T00:001818671-58.7-80.43216
2008-01-01T00:001821070-58.8-80.53166
2008-01-01T00:001823470-58.9-80.53126
2008-01-01T00:001825970-59.0-80.63097
2008-01-01T00:001828470-59.2-80.83068
2008-01-01T00:001830969-59.3-82.63048
2008-01-01T00:001833469-59.3-82.63039
2008-01-01T00:001835969-59.4-82.73039
2008-01-01T00:001838768-59.5-82.73049
2008-01-01T00:001841568-59.6-82.83059
2008-01-01T00:001844368-59.6-82.830710
2008-01-01T00:001847268-59.6-82.830810
2008-01-01T00:001850267-59.8-83.030810
2008-01-01T00:001853067-59.8-83.030810
2008-01-01T00:001856067-59.7-82.930810
2008-01-01T00:001858966-59.7-82.93069
2008-01-01T00:001861866-59.6-82.83059
2008-01-01T00:001864766-59.7-82.93039
2008-01-01T00:001867765-59.9-83.13019
2008-01-01T00:001870565-59.9-83.13009
2008-01-01T00:001873465-59.9-83.12999
2008-01-01T00:001876264-59.8-83.02999
2008-01-01T00:001879064-59.8-83.03009
2008-01-01T00:001881964-59.7-82.93029
2008-01-01T00:001884864-59.0-82.33049
2008-01-01T00:001887563-58.5-81.93089
2008-01-01T00:001890263-57.7-81.33119
2008-01-01T00:001892963-57.7-81.33149
2008-01-01T00:001895563-57.8-79.63169
2008-01-01T00:001898162-58.0-79.83199
2008-01-01T00:001900562-58.1-79.93219
2008-01-01T00:001902862-58.2-80.03239
2008-01-01T00:001905162-58.2-80.03259
2008-01-01T00:001907461-58.4-80.13269
2008-01-01T00:001909761-58.5-80.23289
2008-01-01T00:001911961-58.7-80.43319
2008-01-01T00:001913961-58.8-80.53349
2008-01-01T00:001915961-58.9-80.53369
2008-01-01T00:001917860-58.9-80.53388
2008-01-01T00:001919760-58.9-80.53388
2008-01-01T00:001921660-58.8-80.53378
2008-01-01T00:001923560-58.5-80.23358
2008-01-01T00:001925360-58.5-80.23328
2008-01-01T00:001927159-58.6-80.33298
2008-01-01T00:001928959-58.6-80.33288
2008-01-01T00:001930459-58.4-80.13278
2008-01-01T00:001932259-58.0-81.53268
2008-01-01T00:001933959-57.9-81.53269
2008-01-01T00:001935759-57.9-81.53279
2008-01-01T00:001937358-57.9-81.53289
2008-01-01T00:001938958-57.5-81.23309
2008-01-01T00:001940658-56.9-80.733210
2008-01-01T00:001942458-56.7-80.533410
2008-01-01T00:001944258-56.7-80.533610
2008-01-01T00:001945958-56.6-80.433810
2008-01-01T00:001947858-56.5-80.433910
2008-01-01T00:001949757-56.6-80.434010
2008-01-01T00:001951757-56.7-80.534110
2008-01-01T00:001953857-56.7-80.53429
2008-01-01T00:001955957-56.7-80.53449
2008-01-01T00:001958157-56.6-80.43458
2008-01-01T00:001960456-56.5-80.43457
2008-01-01T00:001962456-56.5-80.43447
2008-01-01T00:001964956-56.5-80.43427
2008-01-01T00:001967356-56.7-80.53407
2008-01-01T00:001969856-56.9-80.73387
2008-01-01T00:001972255-57.0-80.83376
2008-01-01T00:001974955-57.0-80.83346
2008-01-01T00:001977555-57.0-80.83326
2008-01-01T00:001980155-57.0-80.83295
2008-01-01T00:001982854-57.0-80.83265
2008-01-01T00:001985654-57.1-80.83245
2008-01-01T00:001988454-57.3-81.03245
2008-01-01T00:001991254-57.4-81.13265
2008-01-01T00:001994253-57.4-81.13286
2008-01-01T00:001997153-57.5-81.23306
2008-01-01T00:002000153-57.7-81.33327
2008-01-01T00:002003253-57.9-81.53347
2008-01-01T00:002006352-58.1-81.63358
2008-01-01T00:002009352-58.3-81.83378
2008-01-01T00:002012552-58.6-82.03388
2008-01-01T00:002015452-58.8-82.23407
2008-01-01T00:002018751-59.0-82.33427
2008-01-01T00:002021751-59.1-82.43436
2008-01-01T00:002025051-59.3-82.63456
2008-01-01T00:002027951-59.4-82.73465
2008-01-01T00:002030950-59.5-82.73474
2008-01-01T00:002033850-59.6-82.83484
2008-01-01T00:002036650-59.7-82.93463
2008-01-01T00:002039650-59.9-83.13413
2008-01-01T00:002042450-60.0-83.13292
2008-01-01T00:002044949-59.9-83.13122
2008-01-01T00:002047649-59.9-83.12952
2008-01-01T00:002050449-60.0-83.12833
2008-01-01T00:002053049-60.1-83.22743
2008-01-01T00:002055648-60.2-83.32694
2008-01-01T00:002058248-60.4-83.52664
2008-01-01T00:002060848-60.5-83.52655
2008-01-01T00:002063348-60.4-81.82646
2008-01-01T00:002065848-60.3-81.72646
2008-01-01T00:002068148-60.3-81.72647
2008-01-01T00:002070447-60.1-81.52657
2008-01-01T00:002072647-60.1-81.52657
2008-01-01T00:002075047-60.02667
2008-01-01T00:002077147-59.8-81.32687
2008-01-01T00:002079147-59.8-81.32716
2008-01-01T00:002081147-59.7-81.22746
2008-01-01T00:002083146-59.8-81.32786
2008-01-01T00:002085146-59.8-81.32815
2008-01-01T00:002087146-59.7-81.22835
2008-01-01T00:002088846-59.7-81.22855
2008-01-01T00:002090746-59.6-81.12875
2008-01-01T00:002092546-59.6-81.12894
2008-01-01T00:002094446-59.6-81.12914
2008-01-01T00:002096045-59.5-81.02924
2008-01-01T00:002097945-59.6-81.12904
2008-01-01T00:002099845-59.5-81.02874
2008-01-01T00:002101545-59.2-82.52823
2008-01-01T00:002103445-59.1-82.42753
2008-01-01T00:002105345-59.1-82.42683
2008-01-01T00:002107145-59.2-82.52613
2008-01-01T00:002109045-59.1-82.42552
2008-01-01T00:002111044-59.1-82.42492
2008-01-01T00:002112944-59.1-82.42402
2008-01-01T00:002114944-59.1-82.42291
2008-01-01T00:002117144-59.1-82.42201
2008-01-01T00:002119244-59.0-82.32201
2008-01-01T00:002121444-59.0-82.32302
2008-01-01T00:002123843-58.8-82.22412
2008-01-01T00:002126443-58.9-82.32523
2008-01-01T00:002128743-58.9-82.32614
2008-01-01T00:002131143-58.9-82.32685
2008-01-01T00:002133743-59.0-82.32756
2008-01-01T00:002136243-58.8-82.22816
2008-01-01T00:002138842-58.9-82.32877
2008-01-01T00:002141542-58.9-80.52938
2008-01-01T00:002144142-59.0-80.62978
2008-01-01T00:002146842-59.1-80.73018
2008-01-01T00:002149842-59.2-82.53038
2008-01-01T00:002152742-59.2-82.53058
2008-01-01T00:002155541-59.2-82.53069
2008-01-01T00:002158341-59.3-80.93079
2008-01-01T00:002161341-59.4-80.93089
2008-01-01T00:002164441-59.4-80.93099
2008-01-01T00:002167541-59.2-80.83109
2008-01-01T00:002170540-59.3-80.93119
2008-01-01T00:002173440-59.4-80.93119
2008-01-01T00:002176340-59.4-80.93109
2008-01-01T00:002179240-59.4-80.93099
2008-01-01T00:002182040-59.6-81.13069
2008-01-01T00:002184939-59.7-82.93049
2008-01-01T00:002187739-59.6-82.83019
2008-01-01T00:002190239-59.5-82.72989
2008-01-01T00:002192839-59.6-81.12959
2008-01-01T00:002195339-59.7-81.22939
2008-01-01T00:002197839-59.7-82.92919
2008-01-01T00:002200238-59.6-82.82908
2008-01-01T00:002202638-59.4-82.72898
2008-01-01T00:002204638-59.2-82.52898
2008-01-01T00:002207038-59.0-82.32897
2008-01-01T00:002209238-59.1-82.42907
2008-01-01T00:002211238-59.3-82.62926
2008-01-01T00:002213338-59.5-82.72946
2008-01-01T00:002215338-59.6-82.82986
2008-01-01T00:002217137-59.7-82.93026
2008-01-01T00:002219037-59.8-83.03076
2008-01-01T00:002220937-59.9-83.13135
2008-01-01T00:002222637-59.9-83.13185
2008-01-01T00:002224237-59.5-82.73225
2008-01-01T00:002226137-59.3-82.63245
2008-01-01T00:002227937-59.0-82.33244
2008-01-01T00:002229537-58.8-82.23214
2008-01-01T00:002231137-58.8-82.23154
2008-01-01T00:002232937-58.9-82.33063
2008-01-01T00:002234936-59.0-82.32943
2008-01-01T00:002236736-59.0-82.32813
2008-01-01T00:002238536-59.1-82.42704
2008-01-01T00:002240536-59.1-82.42624
2008-01-01T00:002242336-59.1-82.42574
2008-01-01T00:002244236-59.0-82.32554
2008-01-01T00:002246136-58.9-82.32554
2008-01-01T00:002247936-59.0-82.32564
2008-01-01T00:002249836-59.0-82.32584
2008-01-01T00:002251935-59.0-82.32595
2008-01-01T00:002254035-59.1-82.42605
2008-01-01T00:002256235-59.1-82.42606
2008-01-01T00:002258435-59.3-82.62616
2008-01-01T00:002260735-59.4-82.72627
2008-01-01T00:002263135-59.6-82.82637
2008-01-01T00:002265235-59.8-83.02657
2008-01-01T00:002267835-60.0-83.12688
2008-01-01T00:002270234-60.2-83.32718
2008-01-01T00:002272834-60.3-83.42748
2008-01-01T00:002275534-60.3-83.42779
2008-01-01T00:002278034-59.9-83.12809
2008-01-01T00:002280734-59.9-83.128210
2008-01-01T00:002283634-60.1-83.228410
2008-01-01T00:002286634-60.2-83.328511
2008-01-01T00:002289733-60.5-83.528611
2008-01-01T00:002292633-60.7-83.728612
2008-01-01T00:002295833-60.9-83.928712
2008-01-01T00:002298933-61.0-83.928912
2008-01-01T00:002302133-60.9-83.929012
2008-01-01T00:002305233-60.8-83.829112
2008-01-01T00:002308432-61.0-83.929212
2008-01-01T00:002311832-61.1-84.029312
2008-01-01T00:002314932-61.3-84.229312
2008-01-01T00:002317932-61.5-84.329312
2008-01-01T00:002321032-61.6-82.729312
2008-01-01T00:002324232-61.9-83.029411
2008-01-01T00:002327131-62.0-83.129511
2008-01-01T00:002330231-62.2-83.229611
2008-01-01T00:002333031-62.4-83.429711
2008-01-01T00:002335931-62.7-83.629711
2008-01-01T00:002338931-62.9-83.829811
2008-01-01T00:002341631-63.0-83.929911
2008-01-01T00:002344431-63.2-84.029911
2008-01-01T00:002346930-63.3-84.130011
2008-01-01T00:002349330-63.4-84.230011
2008-01-01T00:002352030-63.4-84.230011
2008-01-01T00:002354330-63.3-84.130111
2008-01-01T00:002356630-63.3-84.130211
2008-01-01T00:002358830-63.4-84.230311
2008-01-01T00:002361130-63.6-84.430411
2008-01-01T00:002363530-63.7-84.430511
2008-01-01T00:002365630-63.8-84.530611
2008-01-01T00:002367929-63.7-84.430711
2008-01-01T00:002369929-63.7-84.430712
2008-01-01T00:002372029-63.7-86.130712
2008-01-01T00:002374029-63.6-86.030812
2008-01-01T00:002376129-63.5-85.930812
2008-01-01T00:002378229-63.6-86.030912
2008-01-01T00:002380129-63.6-84.430912
2008-01-01T00:002382229-63.6-84.431012
2008-01-01T00:002384229-63.4-84.231011
2008-01-01T00:002386329-63.5-84.331111
2008-01-01T00:002388228-63.5-84.331110
2008-01-01T00:002390528-63.6-84.431010
2008-01-01T00:002392928-63.7-84.430910
2008-01-01T00:002395228-63.7-84.43089
2008-01-01T00:002397528-63.6-84.43069
2008-01-01T00:002399928-63.3-84.13059
2008-01-01T00:002402528-63.2-84.03049
2008-01-01T00:002404828-63.2-84.03039
2008-01-01T00:002407628-63.3-84.13019
2008-01-01T00:002410327-63.2-84.02989
2008-01-01T00:002412927-62.8-83.72959
2008-01-01T00:002415927-62.7-83.629210
2008-01-01T00:002418827-62.8-83.728910
2008-01-01T00:002421627-63.0-83.928710
2008-01-01T00:002424827-62.9-83.828510
2008-01-01T00:002427627-62.7-83.62849
2008-01-01T00:002430627-62.8-83.72829
2008-01-01T00:002433726-62.7-83.62818
2008-01-01T00:002436926-62.6-83.52808
2008-01-01T00:002439826-62.6-83.52788
2008-01-01T00:002443026-62.4-83.42789
2008-01-01T00:002446026-62.5-83.527810
2008-01-01T00:002449126-62.6-83.527810
2008-01-01T00:002452426-62.7-83.627911
2008-01-01T00:002455426-62.8-83.728012
2008-01-01T00:002458625-62.9-83.828112
2008-01-01T00:002461525-63.0-83.928213
2008-01-01T00:002464625-63.1-83.928313
2008-01-01T00:002467325-63.1-83.928413
2008-01-01T00:002470025-63.1-83.928413
2008-01-01T00:002472825-63.0-83.928413
2008-01-01T00:002475425-62.8-83.728412
2008-01-01T00:002478025-62.9-83.828411
2008-01-01T00:002480224-62.9-83.828311
2008-01-01T00:002482724-62.9-83.828310
2008-01-01T00:002485024-62.9-83.82839
2008-01-01T00:002487124-62.7-83.62848
2008-01-01T00:002489524-62.8-83.72857
2008-01-01T00:002491424-62.8-83.72867
2008-01-01T00:002493524-62.6-83.52866
2008-01-01T00:002495624-62.2-83.22867
2008-01-01T00:002497624-62.0-83.12867
2008-01-01T00:002499524-61.8-82.92878
2008-01-01T00:002501724-61.9-83.02888
2008-01-01T00:002503524-61.9-83.02899
2008-01-01T00:002505424-61.9-83.029110
2008-01-01T00:002507323-61.9-83.029110
2008-01-01T00:002508923-61.729111
2008-01-01T00:002510723-61.5-82.629011
2008-01-01T00:002512623-61.0-82.228811
2008-01-01T00:002514323-60.6-81.928611
2008-01-01T00:002516223-60.5-81.828310
2008-01-01T00:002518223-60.6-81.928010
2008-01-01T00:002520123-60.7-82.027710
2008-01-01T00:002522123-60.8-82.127410
2008-01-01T00:002524523-60.8-82.127210
2008-01-01T00:002526623-60.6-81.927010
2008-01-01T00:002528923-60.6-81.927010
2008-01-01T00:002531023-60.5-81.827211
2008-01-01T00:002533022-60.6-81.927411
2008-01-01T00:002535422-60.5-81.827711
2008-01-01T00:002537822-60.3-81.728011
2008-01-01T00:002540222-60.1-81.528211
2008-01-01T00:002542822-60.028411
2008-01-01T00:002545322-60.1-81.528611
2008-01-01T00:002548222-60.1-81.528811
2008-01-01T00:002551122-60.3-81.728912
2008-01-01T00:002554122-60.3-81.729112
2008-01-01T00:002557422-60.2-81.629412
2008-01-01T00:002560422-60.2-81.629613
2008-01-01T00:002563821-60.029713
2008-01-01T00:002567121-60.2-81.629814
2008-01-01T00:002570721-60.3-81.729814
2008-01-01T00:002574221-60.3-81.729614
2008-01-01T00:002577421-59.9-81.329414
2008-01-01T00:002580721-60.029115
2008-01-01T00:002584221-60.028915
2008-01-01T00:002587521-60.1-81.528615
2008-01-01T00:002590821-60.2-81.628315
2008-01-01T00:002594420-60.2-81.628015
2008-01-01T00:002597620-60.3-81.727815
2008-01-01T00:002600620-60.5-81.827615
2008-01-01T00:002603820-60.8-82.127415
2008-01-01T00:002606620-60.9-82.227216
2008-01-01T00:002609420-61.0-82.227116
2008-01-01T00:002612620-61.1-82.327016
2008-01-01T00:002615620-61.1-82.326817
2008-01-01T00:002618520-60.9-82.226717
2008-01-01T00:002621220-60.9-82.226617
2008-01-01T00:002624019-61.1-82.326417
2008-01-01T00:002626419-61.0-82.226317
2008-01-01T00:002629119-61.1-82.326117
2008-01-01T00:002631619-61.0-82.225917
2008-01-01T00:002634219-61.0-82.225817
2008-01-01T00:002637119-61.2-82.425717
2008-01-01T00:002639419-61.4-82.625717
2008-01-01T00:002641919-61.4-82.625816
2008-01-01T00:002644419-61.4-82.626016
2008-01-01T00:002646919-61.5-82.626116
2008-01-01T00:002649119-61.4-82.626316
2008-01-01T00:002651719-61.6-82.726315
2008-01-01T00:002654319-61.726315
2008-01-01T00:002656418-61.8-82.926314
2008-01-01T00:002658818-61.9-83.026213
2008-01-01T00:002661118-62.0-83.126113
2008-01-01T00:002663718-62.1-83.126113
2008-01-01T00:002666218-62.2-83.226212
2008-01-01T00:002668318-62.3-83.326312
2008-01-01T00:002671018-62.5-83.526412
2008-01-01T00:002673518-62.7-83.626513
2008-01-01T00:002675718-62.6-83.526713
2008-01-01T00:002678418-62.5-83.526814
2008-01-01T00:002681118-62.5-83.527014
2008-01-01T00:002683318-62.6-83.527115
2008-01-01T00:002685918-62.6-83.527215
2008-01-01T00:002688318-62.7-83.627315
2008-01-01T00:002691117-62.7-83.627415
2008-01-01T00:002693917-62.9-83.827515
2008-01-01T00:002696417-63.0-83.927515
2008-01-01T00:002698517-63.2-84.027615
2008-01-01T00:002701617-63.3-84.127715
2008-01-01T00:002704017-63.5-84.327815
2008-01-01T00:002706617-63.6-84.427914
2008-01-01T00:002709317-63.8-84.527914
2008-01-01T00:002711917-63.9-84.628014
2008-01-01T00:002714517-64.0-84.728014
2008-01-01T00:002717417-64.2-84.828014
2008-01-01T00:002719917-64.3-84.927914
2008-01-01T00:002722717-64.5-85.127914
2008-01-01T00:002725017-64.6-85.227714
2008-01-01T00:002727816-64.7-85.227614
2008-01-01T00:002730716-64.8-85.327514
2008-01-01T00:002733616-65.0-85.527315
2008-01-01T00:002736016-65.1-85.627215
2008-01-01T00:002738916-65.2-85.727216
2008-01-01T00:002741516-65.2-85.727216
2008-01-01T00:002744116-65.3-85.727316
2008-01-01T00:002747216-65.5-85.927415
2008-01-01T00:002749816-65.6-86.027515
2008-01-01T00:002752316-65.8-86.127615
2008-01-01T00:002755116-65.9-86.227715
2008-01-01T00:002758116-66.1-86.427714
2008-01-01T00:002760416-66.2-86.527815
2008-01-01T00:002763116-66.4-86.627815
2008-01-01T00:002765515-66.5-86.727915
2008-01-01T00:002768315-66.6-86.828015
2008-01-01T00:002770915-66.7-86.928115
2008-01-01T00:002773815-66.8-87.028215
2008-01-01T00:002776215-67.0-87.128315
2008-01-01T00:002779115-67.1-87.228515
2008-01-01T00:002782115-67.3-87.428615
2008-01-01T00:002784815-67.5-87.528715
2008-01-01T00:002787615-67.7-87.728916
2008-01-01T00:002790215-67.9-87.929016
2008-01-01T00:002793015-68.1-88.029216
2008-01-01T00:002796015-68.0-87.929316
2008-01-01T00:002798815-67.7-87.729317
2008-01-01T00:002801815-67.4-87.529417
2008-01-01T00:002804414-66.7-86.929318
2008-01-01T00:002807114-66.3-86.629318
2008-01-01T00:002809914-66.5-86.729218
2008-01-01T00:002813214-66.6-86.829118
2008-01-01T00:002816014-66.8-87.029019
2008-01-01T00:002819014-66.8-87.028919
2008-01-01T00:002821714-66.8-87.028820
2008-01-01T00:002824514-66.9-87.028820
2008-01-01T00:002827714-67.0-87.128721
2008-01-01T00:002830414-67.1-87.228721
2008-01-01T00:002833214-67.1-87.228721
2008-01-01T00:002836014-67.0-87.128721
2008-01-01T00:002839314-66.9-87.028721
2008-01-01T00:002841914-66.8-87.028721
2008-01-01T00:002844514-66.8-87.028821
2008-01-01T00:002847713-66.9-87.028821
2008-01-01T00:002850613-66.8-87.028821
2008-01-01T00:002853813-66.7-86.928821
2008-01-01T00:002856413-66.5-86.728921
2008-01-01T00:002858913-66.6-86.828922
2008-01-01T00:002861913-66.3-86.629022
2008-01-01T00:002864413-66.1-86.429123
2008-01-01T00:002867513-66.0-86.329224
2008-01-01T00:002869913-66.0-86.329325
2008-01-01T00:002872513-66.0-86.329326
2008-01-01T00:002875513-66.2-86.529426
2008-01-01T00:002878013-66.4-86.629427
2008-01-01T00:002880713-66.5-86.729427
2008-01-01T00:002883713-66.3-86.629427
2008-01-01T00:002886413-66.2-86.529527
2008-01-01T00:002888813-66.0-86.329527
2008-01-01T00:002891313-65.9-86.229527
2008-01-01T00:002893813-65.8-86.129527
2008-01-01T00:002896412-65.6-86.029427
2008-01-01T00:002898912-65.3-85.729427
2008-01-01T00:002901712-65.3-85.729426
2008-01-01T00:002903712-65.5-85.929326
2008-01-01T00:002906312-65.6-86.029325
2008-01-01T00:002908812-65.8-86.129225
2008-01-01T00:002911412-65.8-86.129225
2008-01-01T00:002913612-65.7-86.129125
2008-01-01T00:002916412-65.7-86.129026
2008-01-01T00:002918612-65.8-86.128926
2008-01-01T00:002921212-65.9-86.228826
2008-01-01T00:002924012-66.1-86.428826
2008-01-01T00:002926512-66.1-86.428727
2008-01-01T00:002929112-66.2-86.528727
2008-01-01T00:002932012-66.2-86.528727
2008-01-01T00:002934512-66.2-86.528727
2008-01-01T00:002937012-66.1-86.428727
2008-01-01T00:002940212-66.1-86.428727
2008-01-01T00:002942812-66.0-86.328728
2008-01-01T00:002945011-66.0-86.328728
2008-01-01T00:002947911-65.9-86.228728
2008-01-01T00:002950711-65.9-86.228728
2008-01-01T00:002953611-65.9-86.228628
2008-01-01T00:002956611-65.9-86.228628
2008-01-01T00:002959711-65.9-86.228528
2008-01-01T00:002962411-65.9-86.228428
2008-01-01T00:002965111-66.1-86.428427
2008-01-01T00:002968311-66.3-86.628327
2008-01-01T00:002971011-66.3-86.628226
2008-01-01T00:002973811-66.4-86.628126
2008-01-01T00:002976311-66.5-86.728126
2008-01-01T00:002979611-66.7-86.928026
2008-01-01T00:002982011-66.8-87.027926
2008-01-01T00:002984611-67.0-87.127826
2008-01-01T00:002987411-67.1-87.227726
2008-01-01T00:002990311-67.3-87.427626
2008-01-01T00:002992911-67.4-87.527627
2008-01-01T00:002995711-67.4-87.527527
2008-01-01T00:002998511-67.5-87.527527
2008-01-01T00:003000910-67.5-87.527527
2008-01-01T00:003003910-67.6-87.627527
2008-01-01T00:003006310-67.7-87.727627
2008-01-01T00:003008710-67.8-87.827728
2008-01-01T00:003012010-68.0-87.927928
2008-01-01T00:003014410-68.1-88.028129
2008-01-01T00:003016810-67.6-87.628330
2008-01-01T00:003019610-67.4-87.528531
2008-01-01T00:003021910-67.0-87.128731
2008-01-01T00:003024810-66.5-86.728932
2008-01-01T00:003027510-66.3-86.629032
2008-01-01T00:003029810-66.4-86.629132
2008-01-01T00:003032310-66.6-86.829132
2008-01-01T00:003034710-66.6-86.829232
2008-01-01T00:003036910-66.6-86.829232
2008-01-01T00:003039610-66.6-86.829232
2008-01-01T00:003041510-66.8-87.029232
2008-01-01T00:003044110-66.8-87.029232
2008-01-01T00:003047010-66.7-86.929232
2008-01-01T00:003049210-66.5-86.729132
2008-01-01T00:003051610-66.4-86.629132
2008-01-01T00:003053710-66.3-86.629132
2008-01-01T00:003056010-66.3-86.629032
2008-01-01T00:003058110-66.4-86.629033
2008-01-01T00:00306089-66.3-86.629033
2008-01-01T00:00306389-66.3-86.628933
2008-01-01T00:00306639-66.2-86.528933
2008-01-01T00:00306899-66.2-86.528934
2008-01-01T00:00307119-66.0-86.328834
2008-01-01T00:00307389-65.8-86.128834
2008-01-01T00:00307609-65.5-85.928834
2008-01-01T00:00307859-65.5-85.928934
2008-01-01T00:00308119-65.4-85.828934
2008-01-01T00:00308379-65.2-85.728935
2008-01-01T00:00308569-65.1-85.628935
2008-01-01T00:00308879-65.0-85.528935
2008-01-01T00:00309159-65.0-85.528835
2008-01-01T00:00309409-65.0-85.528835
2008-01-01T00:00309679-65.1-85.628736
2008-01-01T00:00309919-65.0-85.528636
2008-01-01T00:00310179-65.0-85.528636
2008-01-01T00:00310409-64.7-85.228636
2008-01-01T00:00310639-64.3-84.928636
2008-01-01T00:00310939-64.1-84.828636
2008-01-01T00:00311219-64.1-84.828635
2008-01-01T00:00311489-64.2-84.828535
2008-01-01T00:00311719-64.3-84.928535
2008-01-01T00:00312019-64.3-84.928435
2008-01-01T00:00312249-64.2-84.828335
2008-01-01T00:00312479-64.2-84.828236
2008-01-01T00:00312759-64.2-84.828236
2008-01-01T00:00313038-64.2-84.828237
2008-01-01T00:00313258-63.9-84.628238
2008-01-01T00:00313508-63.7-84.428338
2008-01-01T00:00313788-63.5-84.328338
2008-01-01T00:00314048-63.3-84.128439
2008-01-01T00:00314348-63.0-83.928439
2008-01-01T00:00314588-62.9-83.828440
2008-01-01T00:00314818-62.9-83.828340
2008-01-01T00:00315058-62.8-83.728340
2008-01-01T00:00315298-62.4-83.428341
2008-01-01T00:00315528-62.1-83.128241
2008-01-01T00:00315908-62.0-83.128241
2008-01-01T00:00316148-61.6-82.728241
2008-01-01T00:00316398-61.728141
2008-01-01T00:00316648-61.728141
2008-01-01T00:00316898-61.8-82.928142
2008-01-01T00:00317228-61.6-82.728242
2008-01-01T00:00317498-61.0-82.228343
2008-01-01T00:00317768-60.3-81.728444
2008-01-01T00:00318078-60.028545
2008-01-01T00:00318338-60.028545
2008-01-01T00:00318638-59.8-81.328646
2008-01-01T00:00318938-59.8-81.328746
2008-01-01T00:00319248-59.5-81.028746
2008-01-01T00:00319518-59.5-81.028746
2008-01-01T00:00319758-59.5-81.028845
2008-01-01T00:00320098-59.6-81.128845
2008-01-01T00:00320408-59.5-81.028845
2008-01-01T00:00320717-59.2-80.828745
2008-01-01T00:00320987-59.2-80.828745
2008-01-01T00:00321257-59.1-80.728745
2008-01-01T00:00321557-59.2-82.528645
2008-01-01T00:00321877-59.1-82.428645
2008-01-01T00:00322147-59.0-82.328646
2008-01-01T00:00322417-59.0-82.328546
2008-01-01T00:00322737-58.8-82.228546
2008-01-01T00:00322997-58.7-82.128446
2008-01-01T00:00323297-58.6-82.028446
2008-01-01T00:00323567-58.7-82.128446
2008-01-01T00:00323847-58.5-81.928446
2008-01-01T00:00324117-58.3-81.828546
2008-01-01T00:00324387-58.1-81.628546
2008-01-01T00:00324697-58.1-81.628546
2008-01-01T00:00324977-58.1-81.628646
2008-01-01T00:00325247-57.9-81.528546
2008-01-01T00:00325517-57.7-81.328546
2008-01-01T00:00325797-57.7-81.328545
2008-01-01T00:00326097-57.5-81.228445
2008-01-01T00:00326387-57.5-81.228345
2008-01-01T00:00326607-57.5-81.228345
2008-01-01T00:00326927-57.4-81.128245
2008-01-01T00:00327257-57.2-80.928245
2008-01-01T00:00327467-57.0-80.828245
2008-01-01T00:00327767-57.0-80.828245
2008-01-01T00:00328007-57.1-80.828245
2008-01-01T00:00328267-57.2-79.228345
2008-01-01T00:00328597-57.1-79.128445
2008-01-01T00:00328757-57.3-79.228545
2008-01-01T00:00328967-57.1-79.128546
2008-01-01T00:00329297-57.0-79.028446
2008-01-01T00:00329587-57.0-80.828346
2008-01-01T00:00329806-56.8-80.628247
2008-01-01T00:00330076-56.8-80.628148
2008-01-01T00:00330286-56.9-80.728048
2008-01-01T00:00330486-56.9-80.728049
2008-01-01T00:00330726-56.9-80.727950
2008-01-01T00:00331066-56.9-80.727950
2008-01-01T00:00331276-56.8-80.627851
2008-01-01T00:00331426-56.9-80.727851
2008-01-01T00:00331626-57.0-80.827951
2008-01-01T00:00331916-57.1-80.827951
2008-01-01T00:00332116-57.1-80.828052
2008-01-01T00:00332256-56.6-80.428152
2008-01-01T00:00332446-56.0-80.028252
2008-01-01T00:00332706-55.8-79.828251
2008-01-01T00:00332886-55.7-79.728351
2008-01-01T00:00333126-55.6-79.628351
2008-01-01T00:00333296-55.6-79.628351
2008-01-01T00:00333426-55.8-79.828351
2008-01-01T00:00333676-55.6-79.628352
2008-01-01T00:00333896-54.8-79.028353
2008-01-01T00:00334046-54.1-78.528454
2008-01-01T00:00334226-53.5-76.228455
2008-01-01T00:00334436-53.3-76.028457
2008-01-01T00:00334686-53.1-75.928558
2008-01-01T00:00334936-53.2-75.928559
2008-01-01T00:00335136-53.1-75.928560
2008-01-01T00:00335306-53.1-75.928660
2008-01-01T00:00335606-53.2-75.928661
2008-01-01T00:00335826-52.8-75.628762
2008-01-01T00:00336086-52.7-75.528763
2008-01-01T00:00336316-52.8-75.628864
2008-01-01T00:00336556-52.8-75.628964
2008-01-01T00:00336856-52.7-75.528965
2008-01-01T00:00337146-52.5-75.429066
2008-01-01T00:00337466-52.4-73.929167
2008-01-01T00:00337716-52.1-73.629168
2008-01-01T00:00338006-51.9-73.429169
2008-01-01T00:00338306-51.7-73.329269
2008-01-01T00:00338616-51.7-74.729269
2008-01-01T00:00338866-51.7-73.329269
2008-01-01T00:00339106-51.7-73.329269
2008-01-01T00:00339466-51.3-73.029268
2008-01-01T00:00339656-51.0-74.229268
2008-01-01T00:00339946-50.8-74.029167
2008-01-01T00:00340186-50.8-74.029166
2008-01-01T00:00340526-51.1-74.229066
2008-01-01T00:00340745-51.2-74.328965
2008-01-01T00:00341045-50.2-73.528965
2008-01-01T00:00341285-49.9-73.328865
2008-01-01T00:00341445-49.7-71.728865
2008-01-01T00:00341605-49.1-71.228866
2008-01-01T00:00341925-48.0-71.828866
2008-01-01T00:00342165-47.2-71.128967
2008-01-01T00:00342415-46.9-70.928967
2008-01-01T00:00342645-46.7-70.729067
2008-01-01T00:00342915-47.0-71.029067
2008-01-01T00:00343115-47.3-71.229167
2008-01-01T00:00343255-47.1-71.029166
2008-01-01T00:00343535-47.2-71.129266
2008-01-01T00:00343765-47.5-71.429265
2008-01-01T00:00343965-47.7-70.029265
2008-01-01T00:00344195-47.9-70.229364
2008-01-01T00:00344405-47.7-70.029364
2008-01-01T00:00344625-47.5-71.429364
2008-01-01T00:00344815-47.4-71.329264
2008-01-01T00:00345035-47.3-71.229264
2008-01-01T00:00345285-47.5-71.429165
2008-01-01T00:00345475-47.7-71.529165
2008-01-01T00:00345675-47.7-71.529065
2008-01-01T00:00345925-47.1-71.029065
2008-01-01T00:00346165-47.0-71.028966
2008-01-01T00:00346385-46.9-70.928966
2008-01-01T00:00346595-46.8-72.728866
2008-01-01T00:00346785-46.8-72.728766
2008-01-01T00:00347035-46.8-72.728767
2008-01-01T00:00347245-46.9-72.828667
2008-01-01T00:00347485-46.3-74.928568
2008-01-01T00:00347775-46.2-74.928568
2008-01-01T00:00348005-46.2-74.928569
2008-01-01T00:00348255-45.9-74.628469
2008-01-01T00:00348525-45.9-72.028469
2008-01-01T00:00348725-45.8-71.928470
2008-01-01T00:00348895-45.5-71.728471
2008-01-01T00:00349085-45.4-74.228472
2008-01-01T00:00349365-45.3-74.228373
2008-01-01T00:00349615-45.3-74.228374
2008-01-01T00:00349915-45.0-73.928374
2008-01-01T00:00350155-44.9-73.928375
2008-01-01T00:00350325-44.7-73.728375
2008-01-01T00:00350515-44.5-73.628476
2008-01-01T00:00350745-44.5-73.628477
2008-01-01T00:00351025-44.4-70.828577
2008-01-01T00:00351315-44.7-71.028578
2008-01-01T00:00351505-44.7-69.128578
2008-01-01T00:00351675-44.3-70.728578
2008-01-01T00:00351875-44.4-70.828578
2008-01-01T00:00352065-44.7-71.028578
2008-01-01T00:00352245-44.9-71.228578
2008-01-01T00:00352435-44.9-69.328678
2008-01-01T00:00352605-44.5-70.928678
2008-01-01T00:00352825-43.7-70.328678
2008-01-01T00:00353045-43.3-70.028678
2008-01-01T00:00353205-43.3-70.028678
2008-01-01T00:00353355-43.4-70.028577
2008-01-01T00:00353505-43.1-69.828577
2008-01-01T00:00353675-42.8-69.628476
2008-01-01T06:0011210110.1-0.42903
2008-01-01T06:001341008-0.3-0.32384
2008-01-01T06:001581005-0.4-0.42435
2008-01-01T06:001821002-0.6-0.62495
2008-01-01T06:00209999-0.8-0.82575
2008-01-01T06:00235995-0.9-1.02655
2008-01-01T06:00260992-1.1-1.12745
2008-01-01T06:00287989-1.2-1.22845
2008-01-01T06:00311986-1.3-1.32955
2008-01-01T06:00333983-1.4-1.43055
2008-01-01T06:00356980-1.6-1.63115
2008-01-01T06:00382977-1.8-1.83165
2008-01-01T06:00403975-1.8-1.83195
2008-01-01T06:00426972-1.9-1.93225
2008-01-01T06:00453968-2.0-2.03235
2008-01-01T06:00476966-2.1-2.13245
2008-01-01T06:00504962-2.3-2.33245
2008-01-01T06:00533959-2.5-2.53255
2008-01-01T06:00561955-2.8-2.83285
2008-01-01T06:00586952-2.9-2.93325
2008-01-01T06:00613949-3.0-3.03366
2008-01-01T06:00634947-2.9-2.93366
2008-01-01T06:00657944-3.1-3.13356
2008-01-01T06:00684941-3.0-3.03316
2008-01-01T06:00708938-3.0-3.03276
2008-01-01T06:00732935-3.2-3.23237
2008-01-01T06:00760932-3.5-3.53207
2008-01-01T06:00785929-3.5-3.93187
2008-01-01T06:00809926-3.8-4.23167
2008-01-01T06:00834923-3.8-4.43147
2008-01-01T06:00857920-3.8-5.03127
2008-01-01T06:00881918-3.8-5.83127
2008-01-01T06:00904915-3.8-5.83127
2008-01-01T06:00928912-4.0-6.23127
2008-01-01T06:00952909-4.1-6.13127
2008-01-01T06:00977906-4.4-6.33117
2008-01-01T06:00999904-4.6-6.43097
2008-01-01T06:001024901-4.9-6.73076
2008-01-01T06:001049898-5.1-7.13056
2008-01-01T06:001072895-5.3-7.23036
2008-01-01T06:001097893-5.5-7.33026
2008-01-01T06:001120890-5.8-7.43016
2008-01-01T06:001141888-6.0-7.53016
2008-01-01T06:001162885-6.2-7.43016
2008-01-01T06:001182883-6.33035
2008-01-01T06:001208880-6.6-7.73065
2008-01-01T06:001233877-6.8-7.93095
2008-01-01T06:001259874-7.1-8.13116
2008-01-01T06:001282872-7.3-8.13126
2008-01-01T06:001304869-7.5-8.23136
2008-01-01T06:001329867-7.8-8.63136
2008-01-01T06:001355864-8.0-8.83136
2008-01-01T06:001378861-8.1-8.83146
2008-01-01T06:001401859-8.3-8.93156
2008-01-01T06:001426856-8.6-9.13166
2008-01-01T06:001451853-8.8-9.23166
2008-01-01T06:001479850-9.0-9.23166
2008-01-01T06:001504847-9.2-9.33156
2008-01-01T06:001530844-9.4-9.53146
2008-01-01T06:001554842-9.6-9.73136
2008-01-01T06:001581839-9.8-9.93126
2008-01-01T06:001608836-9.9-9.93126
2008-01-01T06:001636833-10.1-10.13126
2008-01-01T06:001664830-10.3-10.33136
2008-01-01T06:001696826-10.6-10.63156
2008-01-01T06:001724823-10.8-10.83186
2008-01-01T06:001752820-11.0-11.03216
2008-01-01T06:001775818-11.1-11.13236
2008-01-01T06:001807815-11.4-11.43236
2008-01-01T06:001838811-11.6-11.63216
2008-01-01T06:001868808-11.8-11.83176
2008-01-01T06:001896805-11.9-11.93146
2008-01-01T06:001927802-12.1-12.13106
2008-01-01T06:001954799-12.3-12.33086
2008-01-01T06:001983796-12.5-12.63067
2008-01-01T06:002012793-12.8-12.93057
2008-01-01T06:002041790-12.8-12.83057
2008-01-01T06:002071787-13.0-13.13057
2008-01-01T06:002103784-13.3-13.43057
2008-01-01T06:002134780-13.5-13.63077
2008-01-01T06:002161778-13.5-13.53107
2008-01-01T06:002188775-13.8-13.93148
2008-01-01T06:002211773-13.8-13.93188
2008-01-01T06:002235770-12.9-14.13219
2008-01-01T06:002259768-13.0-14.23229
2008-01-01T06:002285765-13.2-14.63239
2008-01-01T06:002313762-13.4-16.03239
2008-01-01T06:002337760-13.5-16.33229
2008-01-01T06:002364757-13.8-16.63239
2008-01-01T06:002390755-13.9-16.73248
2008-01-01T06:002416752-14.2-17.03268
2008-01-01T06:002443749-14.4-17.53299
2008-01-01T06:002467747-14.6-17.83309
2008-01-01T06:002493744-14.8-18.23319
2008-01-01T06:002518742-15.0-18.43308
2008-01-01T06:002545739-15.2-18.73298
2008-01-01T06:002569737-15.4-19.43288
2008-01-01T06:002593735-15.6-19.53268
2008-01-01T06:002618732-15.8-19.63258
2008-01-01T06:002643730-15.9-19.43248
2008-01-01T06:002668727-16.1-19.33248
2008-01-01T06:002694725-16.3-19.53259
2008-01-01T06:002722722-16.4-19.73269
2008-01-01T06:002745720-16.6-20.13279
2008-01-01T06:002770718-16.8-20.43289
2008-01-01T06:002797715-17.0-20.53289
2008-01-01T06:002822713-17.2-20.832810
2008-01-01T06:002847710-17.4-21.332710
2008-01-01T06:002871708-17.5-21.53269
2008-01-01T06:002899705-17.7-21.73249
2008-01-01T06:002925703-17.9-22.13229
2008-01-01T06:002951700-18.2-22.43219
2008-01-01T06:002979698-18.3-22.83229
2008-01-01T06:003008695-18.5-23.13239
2008-01-01T06:003036692-18.7-23.33259
2008-01-01T06:003062690-18.9-23.83279
2008-01-01T06:003087688-19.1-24.03279
2008-01-01T06:003115685-19.4-24.33279
2008-01-01T06:003137683-19.6-24.73279
2008-01-01T06:003163681-19.7-25.33269
2008-01-01T06:003190678-19.8-25.53268
2008-01-01T06:003214676-19.9-25.03268
2008-01-01T06:003243673-20.0-24.13278
2008-01-01T06:003271671-20.2-23.93278
2008-01-01T06:003295669-20.4-23.63277
2008-01-01T06:003320667-20.6-23.43277
2008-01-01T06:003346664-20.8-23.13267
2008-01-01T06:003371662-21.0-22.93247
2008-01-01T06:003395660-21.1-22.43237
2008-01-01T06:003421657-21.3-22.43236
2008-01-01T06:003448655-21.6-22.93236
2008-01-01T06:003475653-21.8-23.03226
2008-01-01T06:003499650-22.0-23.13216
2008-01-01T06:003523648-22.2-23.23206
2008-01-01T06:003549646-22.5-24.03187
2008-01-01T06:003573644-22.9-26.53187
2008-01-01T06:003596642-23.1-27.73197
2008-01-01T06:003621640-23.1-26.53217
2008-01-01T06:003645638-23.2-25.83238
2008-01-01T06:003672635-23.4-26.43248
2008-01-01T06:003699633-23.6-26.63249
2008-01-01T06:003725631-23.9-26.83259
2008-01-01T06:003748629-24.1-27.13269
2008-01-01T06:003767627-24.3-27.33289
2008-01-01T06:003789625-24.4-27.33299
2008-01-01T06:003815623-24.7-27.43309
2008-01-01T06:003840621-24.9-27.93309
2008-01-01T06:003862619-25.1-28.23289
2008-01-01T06:003885617-25.3-28.53279
2008-01-01T06:003907615-25.4-28.63259
2008-01-01T06:003930613-25.5-28.73239
2008-01-01T06:003957611-25.7-28.83209
2008-01-01T06:003982609-25.8-28.53179
2008-01-01T06:004004607-25.9-28.33159
2008-01-01T06:004028605-26.0-28.631310
2008-01-01T06:004053603-26.2-29.031310
2008-01-01T06:004077601-26.3-29.531410
2008-01-01T06:004099599-26.4-29.931510
2008-01-01T06:004124597-26.6-30.931610
2008-01-01T06:004150595-26.7-32.631710
2008-01-01T06:004176593-26.8-36.231910
2008-01-01T06:004199591-26.8-41.332010
2008-01-01T06:004222589-27.0-42.832210
2008-01-01T06:004248587-27.2-42.532510
2008-01-01T06:004268585-27.3-41.732610
2008-01-01T06:004293583-27.2-39.432710
2008-01-01T06:004318581-27.4-40.732711
2008-01-01T06:004342579-27.6-41.232711
2008-01-01T06:004369577-27.8-41.032711
2008-01-01T06:004395575-28.1-40.932711
2008-01-01T06:004420573-28.2-39.732811
2008-01-01T06:004446571-28.4-39.332911
2008-01-01T06:004474569-28.7-38.833012
2008-01-01T06:004498567-28.9-38.433112
2008-01-01T06:004519565-29.1-38.133212
2008-01-01T06:004545563-29.4-38.233412
2008-01-01T06:004574561-29.6-38.133512
2008-01-01T06:004604558-29.8-37.733512
2008-01-01T06:004627557-30.0-37.233612
2008-01-01T06:004650555-30.2-37.033412
2008-01-01T06:004677553-30.4-36.733313
2008-01-01T06:004706550-30.7-36.333013
2008-01-01T06:004733548-30.9-35.832812
2008-01-01T06:004761546-31.1-35.632712
2008-01-01T06:004788544-31.3-35.332612
2008-01-01T06:004817542-31.6-35.332611
2008-01-01T06:004845540-31.8-35.332711
2008-01-01T06:004875537-32.1-35.432811
2008-01-01T06:004909535-32.4-35.732911
2008-01-01T06:004934533-32.6-35.833012
2008-01-01T06:004964531-32.8-35.933012
2008-01-01T06:004988529-33.1-35.933112
2008-01-01T06:005016527-33.3-36.033113
2008-01-01T06:005039525-33.6-36.133113
2008-01-01T06:005063523-33.8-36.233212
2008-01-01T06:005086522-34.0-36.333412
2008-01-01T06:005121519-34.3-36.433511
2008-01-01T06:005151517-34.6-36.533511
2008-01-01T06:005175515-34.9-36.633511
2008-01-01T06:005201513-35.1-36.733611
2008-01-01T06:005227511-35.3-37.033611
2008-01-01T06:005252509-35.5-37.333511
2008-01-01T06:005276507-35.7-37.833511
2008-01-01T06:005302506-36.0-38.333311
2008-01-01T06:005326504-36.2-38.733211
2008-01-01T06:005349502-36.4-39.133011
2008-01-01T06:005372501-36.6-39.433011
2008-01-01T06:005397499-36.8-39.633112
2008-01-01T06:005427497-37.1-39.733312
2008-01-01T06:005453495-37.3-39.833512
2008-01-01T06:005476493-37.4-40.033713
2008-01-01T06:005499491-37.5-40.433813
2008-01-01T06:005525490-37.7-40.934014
2008-01-01T06:005547488-37.8-41.234114
2008-01-01T06:005571486-38.0-41.634114
2008-01-01T06:005594485-38.1-41.834214
2008-01-01T06:005618483-38.3-42.234213
2008-01-01T06:005647481-38.5-42.434214
2008-01-01T06:005670479-38.7-42.634214
2008-01-01T06:005697477-38.8-42.734315
2008-01-01T06:005727475-39.1-43.034415
2008-01-01T06:005753474-39.2-43.134416
2008-01-01T06:005780472-39.2-43.434417
2008-01-01T06:005805470-39.3-43.934417
2008-01-01T06:005829468-39.3-44.334418
2008-01-01T06:005852467-39.4-44.834318
2008-01-01T06:005876465-39.5-45.334218
2008-01-01T06:005896464-39.6-45.634217
2008-01-01T06:005917462-39.8-46.034117
2008-01-01T06:005946460-40.0-46.334217
2008-01-01T06:005967459-40.2-46.734217
2008-01-01T06:005987458-40.3-46.834317
2008-01-01T06:006008456-40.5-47.134317
2008-01-01T06:006031455-40.6-47.234417
2008-01-01T06:006067452-40.9-47.934417
2008-01-01T06:006089451-41.0-48.034317
2008-01-01T06:006108450-41.2-48.234218
2008-01-01T06:006129448-41.3-48.534218
2008-01-01T06:006149447-41.4-48.534118
2008-01-01T06:006172445-41.5-49.034118
2008-01-01T06:006200444-41.7-49.634018
2008-01-01T06:006227442-41.9-50.034018
2008-01-01T06:006248440-42.1-50.234018
2008-01-01T06:006268439-42.3-50.434018
2008-01-01T06:006287438-42.5-50.634118
2008-01-01T06:006314436-42.8-50.934118
2008-01-01T06:006334435-42.9-50.734218
2008-01-01T06:006353434-43.1-50.934318
2008-01-01T06:006374432-43.3-51.134318
2008-01-01T06:006399431-43.5-51.334418
2008-01-01T06:006421429-43.7-51.534418
2008-01-01T06:006444428-43.9-51.734419
2008-01-01T06:006466426-44.1-51.934419
2008-01-01T06:006484425-44.2-52.034520
2008-01-01T06:006504424-44.4-52.134620
2008-01-01T06:006523423-44.5-52.234721
2008-01-01T06:006546421-44.5-52.434721
2008-01-01T06:006567420-44.4-52.634721
2008-01-01T06:006595418-43.8-53.234621
2008-01-01T06:006620417-43.8-54.234621
2008-01-01T06:006639416-43.8-55.134521
2008-01-01T06:006661414-43.7-56.034521
2008-01-01T06:006686413-43.8-57.234522
2008-01-01T06:006706411-43.7-57.934522
2008-01-01T06:006726410-43.6-58.334422
2008-01-01T06:006748409-43.7-58.934423
2008-01-01T06:006771407-43.9-59.634323
2008-01-01T06:006793406-44.0-59.734323
2008-01-01T06:006812405-44.0-60.234324
2008-01-01T06:006832404-43.8-60.634324
2008-01-01T06:006851403-43.8-60.634324
2008-01-01T06:006875401-43.8-61.334424
2008-01-01T06:006896400-44.0-60.834424
2008-01-01T06:006918399-44.2-61.034524
2008-01-01T06:006942397-44.2-61.034625
2008-01-01T06:006966396-43.9-60.734624
2008-01-01T06:006987394-44.0-60.834524
2008-01-01T06:007008393-44.1-60.934424
2008-01-01T06:007031392-44.2-61.034324
2008-01-01T06:007053391-44.3-61.034225
2008-01-01T06:007073389-44.4-61.134225
2008-01-01T06:007094388-44.2-61.034326
2008-01-01T06:007116387-44.3-61.734426
2008-01-01T06:007138386-44.4-61.834526
2008-01-01T06:007162384-44.5-62.534627
2008-01-01T06:007184383-44.6-62.634627
2008-01-01T06:007205382-44.7-62.734627
2008-01-01T06:007228381-44.7-63.534627
2008-01-01T06:007251379-44.8-63.634527
2008-01-01T06:007272378-44.7-63.534427
2008-01-01T06:007294377-44.7-63.534427
2008-01-01T06:007316376-44.5-63.334427
2008-01-01T06:007337374-44.4-63.234327
2008-01-01T06:007358373-44.234328
2008-01-01T06:007379372-44.234328
2008-01-01T06:007400371-44.234428
2008-01-01T06:007420370-44.234428
2008-01-01T06:007441369-44.234429
2008-01-01T06:007461368-44.234529
2008-01-01T06:007482366-44.3-64.034429
2008-01-01T06:007504365-44.4-65.034429
2008-01-01T06:007524364-44.5-65.134329
2008-01-01T06:007546363-44.5-64.134329
2008-01-01T06:007567362-44.6-64.234229
2008-01-01T06:007588361-44.7-64.334129
2008-01-01T06:007608360-44.6-64.234129
2008-01-01T06:007625359-44.7-64.334129
2008-01-01T06:007646358-44.8-64.434130
2008-01-01T06:007668356-45.0-65.534130
2008-01-01T06:007698355-45.2-65.734130
2008-01-01T06:007726353-45.3-65.734130
2008-01-01T06:007748352-45.2-65.734130
2008-01-01T06:007767351-45.3-65.734030
2008-01-01T06:007789350-45.5-65.934030
2008-01-01T06:007813349-45.6-66.034030
2008-01-01T06:007834348-45.7-66.134030
2008-01-01T06:007854347-45.6-66.034030
2008-01-01T06:007874345-45.5-67.034030
2008-01-01T06:007893344-45.5-67.034030
2008-01-01T06:007916343-45.4-66.933931
2008-01-01T06:007937342-45.5-67.033931
2008-01-01T06:007957341-45.6-67.133832
2008-01-01T06:007979340-45.5-67.033833
2008-01-01T06:008001339-45.5-67.033833
2008-01-01T06:008023338-45.6-65.133834
2008-01-01T06:008044337-45.8-65.233934
2008-01-01T06:008065336-45.9-65.333933
2008-01-01T06:008086335-46.1-66.433933
2008-01-01T06:008104334-46.2-65.634033
2008-01-01T06:008126333-46.2-65.634032
2008-01-01T06:008148332-46.4-65.734032
2008-01-01T06:008169331-46.4-65.734132
2008-01-01T06:008190329-46.5-65.834131
2008-01-01T06:008212328-46.6-65.934131
2008-01-01T06:008233327-46.6-65.134231
2008-01-01T06:008254326-46.8-65.234231
2008-01-01T06:008275325-46.9-65.334332
2008-01-01T06:008297324-47.0-66.234332
2008-01-01T06:008321323-47.2-66.434332
2008-01-01T06:008342322-47.2-66.434432
2008-01-01T06:008363321-47.3-66.534432
2008-01-01T06:008385320-47.3-66.534432
2008-01-01T06:008407319-47.4-66.634432
2008-01-01T06:008431318-47.5-66.734332
2008-01-01T06:008453317-47.6-66.734332
2008-01-01T06:008475316-47.7-66.834232
2008-01-01T06:008497315-47.9-67.034232
2008-01-01T06:008519313-48.0-67.134132
2008-01-01T06:008543312-48.2-67.234132
2008-01-01T06:008565311-48.3-66.534132
2008-01-01T06:008590310-48.3-67.334232
2008-01-01T06:008615309-48.2-66.434232
2008-01-01T06:008637308-48.2-66.434332
2008-01-01T06:008660307-48.2-66.434432
2008-01-01T06:008685306-48.4-66.634432
2008-01-01T06:008707305-48.5-66.734531
2008-01-01T06:008731304-48.6-66.834531
2008-01-01T06:008756302-48.7-67.734530
2008-01-01T06:008779301-48.6-66.834529
2008-01-01T06:008801300-48.7-66.834529
2008-01-01T06:008824299-48.8-67.734529
2008-01-01T06:008847298-48.8-67.734528
2008-01-01T06:008870297-48.9-67.834628
2008-01-01T06:008893296-48.9-67.834628
2008-01-01T06:008915295-49.0-67.934629
2008-01-01T06:008935294-48.8-67.734629
2008-01-01T06:008958293-48.8-67.734729
2008-01-01T06:008980292-48.8-67.734729
2008-01-01T06:009002291-48.8-67.734629
2008-01-01T06:009024290-48.9-67.834628
2008-01-01T06:009045289-49.1-68.034528
2008-01-01T06:009066288-49.2-68.134528
2008-01-01T06:009086288-49.3-68.234428
2008-01-01T06:009105287-49.4-68.234328
2008-01-01T06:009125286-49.5-68.334328
2008-01-01T06:009144285-49.6-68.434328
2008-01-01T06:009163284-49.6-68.434428
2008-01-01T06:009184283-49.734529
2008-01-01T06:009203282-49.734628
2008-01-01T06:009223282-49.8-68.634728
2008-01-01T06:009243281-49.734828
2008-01-01T06:009260280-49.4-68.234928
2008-01-01T06:009279279-49.3-68.235027
2008-01-01T06:009297278-49.4-68.235127
2008-01-01T06:009316278-49.4-68.235127
2008-01-01T06:009334277-49.4-68.235126
2008-01-01T06:009352276-49.4-67.435026
2008-01-01T06:009370275-49.5-67.535025
2008-01-01T06:009390275-49.5-67.534924
2008-01-01T06:009409274-49.5-67.534923
2008-01-01T06:009428273-49.5-68.334923
2008-01-01T06:009448272-49.5-68.334922
2008-01-01T06:009471271-49.7-69.434921
2008-01-01T06:009491270-49.8-69.534921
2008-01-01T06:009510270-49.9-69.634921
2008-01-01T06:009530269-50.0-69.735020
2008-01-01T06:009551268-50.1-70.835020
2008-01-01T06:009570267-50.0-70.735020
2008-01-01T06:009590266-50.0-71.934919
2008-01-01T06:009611265-49.8-71.734919
2008-01-01T06:009632265-49.6-70.434818
2008-01-01T06:009652264-49.4-70.234718
2008-01-01T06:009673263-49.3-70.134618
2008-01-01T06:009694262-49.4-70.234519
2008-01-01T06:009715261-49.5-70.334419
2008-01-01T06:009736260-49.7-70.434319
2008-01-01T06:009758260-49.6-70.434220
2008-01-01T06:009779259-49.7-70.434120
2008-01-01T06:009800258-49.9-70.634021
2008-01-01T06:009822257-50.0-70.734021
2008-01-01T06:009846256-50.2-70.934021
2008-01-01T06:009868255-50.3-70.934022
2008-01-01T06:009890254-50.4-71.034022
2008-01-01T06:009916253-50.5-71.134023
2008-01-01T06:009949252-50.8-71.434023
2008-01-01T06:009978251-51.0-71.534124
2008-01-01T06:0010003250-51.2-71.734124
2008-01-01T06:0010029249-51.3-71.834225
2008-01-01T06:0010053248-51.3-71.834325
2008-01-01T06:0010079247-51.1-71.634424
2008-01-01T06:0010105246-51.0-71.534524
2008-01-01T06:0010131245-51.0-71.534524
2008-01-01T06:0010156244-50.9-71.434624
2008-01-01T06:0010181243-50.8-71.434724
2008-01-01T06:0010207242-50.9-71.434724
2008-01-01T06:0010234241-51.0-71.534824
2008-01-01T06:0010260240-51.1-71.635024
2008-01-01T06:0010286239-51.1-71.635124
2008-01-01T06:0010311238-50.8-71.435223
2008-01-01T06:0010335237-50.7-71.335322
2008-01-01T06:0010360237-50.4-71.035422
2008-01-01T06:0010386236-50.3-70.935521
2008-01-01T06:0010415235-50.0-70.735520
2008-01-01T06:0010445234-50.0-71.935519
2008-01-01T06:0010470233-50.1-72.035518
2008-01-01T06:0010495232-50.0-71.935517
2008-01-01T06:0010518231-50.0-71.935516
2008-01-01T06:0010540230-49.9-71.835515
2008-01-01T06:0010562229-49.5-71.535415
2008-01-01T06:0010583229-49.5-71.535214
2008-01-01T06:0010604228-49.5-71.535114
2008-01-01T06:0010624227-49.4-71.435014
2008-01-01T06:0010643227-49.5-71.534914
2008-01-01T06:0010664226-49.3-71.334815
2008-01-01T06:0010685225-49.2-71.234815
2008-01-01T06:0010705224-49.3-71.334815
2008-01-01T06:0010726224-49.4-71.434816
2008-01-01T06:0010746223-49.5-73.034716
2008-01-01T06:0010766222-49.5-73.034617
2008-01-01T06:0010786222-49.6-73.034517
2008-01-01T06:0010806221-49.7-73.134417
2008-01-01T06:0010827220-49.8-73.234218
2008-01-01T06:0010848220-49.9-71.834118
2008-01-01T06:0010869219-50.1-72.034018
2008-01-01T06:0010891218-50.2-72.133918
2008-01-01T06:0010920217-50.5-72.333818
2008-01-01T06:0010941216-50.6-72.433718
2008-01-01T06:0010960216-50.7-73.933618
2008-01-01T06:0010978215-50.6-72.433618
2008-01-01T06:0010999215-50.6-72.433718
2008-01-01T06:0011018214-50.5-72.333918
2008-01-01T06:0011037213-50.5-72.334018
2008-01-01T06:0011057213-50.6-72.434117
2008-01-01T06:0011077212-50.5-72.334217
2008-01-01T06:0011098211-50.3-72.134317
2008-01-01T06:0011119211-50.2-73.534416
2008-01-01T06:0011140210-50.0-73.434516
2008-01-01T06:0011161209-49.8-73.234616
2008-01-01T06:0011184209-49.8-73.234815
2008-01-01T06:0011206208-49.7-75.034915
2008-01-01T06:0011228207-49.8-75.135014
2008-01-01T06:0011251206-50.0-75.235114
2008-01-01T06:0011275206-50.2-75.435314
2008-01-01T06:0011299205-50.2-73.535413
2008-01-01T06:0011323204-50.1-73.435513
2008-01-01T06:0011345203-50.1-73.435613
2008-01-01T06:0011369203-50.0-75.235713
2008-01-01T06:0011392202-50.1-75.335813
2008-01-01T06:0011415201-50.3-75.535813
2008-01-01T06:0011439201-50.3-75.535813
2008-01-01T06:0011462200-50.4-75.535813
2008-01-01T06:0011486199-50.6-75.735714
2008-01-01T06:0011512198-50.7-75.835714
2008-01-01T06:0011538198-50.9-75.935614
2008-01-01T06:0011564197-51.0-76.035514
2008-01-01T06:0011589196-51.2-74.335415
2008-01-01T06:0011615195-51.3-74.435315
2008-01-01T06:0011639194-51.3-73.035115
2008-01-01T06:0011664194-51.2-74.334915
2008-01-01T06:0011690193-51.2-74.334816
2008-01-01T06:0011718192-51.4-74.534616
2008-01-01T06:0011742191-51.5-74.634516
2008-01-01T06:0011766191-51.6-74.634516
2008-01-01T06:0011790190-51.4-74.534417
2008-01-01T06:0011815189-51.3-73.034417
2008-01-01T06:0011840189-51.5-74.634317
2008-01-01T06:0011865188-51.7-74.734217
2008-01-01T06:0011889187-51.8-74.834118
2008-01-01T06:0011913186-51.9-74.934018
2008-01-01T06:0011943186-52.0-75.033818
2008-01-01T06:0011966185-52.0-75.033818
2008-01-01T06:0011989184-52.2-75.133718
2008-01-01T06:0012013184-52.4-75.333718
2008-01-01T06:0012037183-52.6-75.533718
2008-01-01T06:0012061182-52.8-75.633717
2008-01-01T06:0012083182-53.0-75.833617
2008-01-01T06:0012105181-53.0-75.833516
2008-01-01T06:0012128180-52.9-75.733316
2008-01-01T06:0012149180-52.7-74.133116
2008-01-01T06:0012170179-52.7-75.533015
2008-01-01T06:0012191179-52.5-75.432815
2008-01-01T06:0012213178-52.4-75.332714
2008-01-01T06:0012233177-52.2-75.132614
2008-01-01T06:0012255177-52.1-75.132613
2008-01-01T06:0012275176-52.2-75.132613
2008-01-01T06:0012296176-51.8-74.832713
2008-01-01T06:0012322175-51.8-74.832913
2008-01-01T06:0012349174-51.5-74.633114
2008-01-01T06:0012380173-51.7-74.733315
2008-01-01T06:0012404173-51.5-74.633516
2008-01-01T06:0012425172-51.4-74.533616
2008-01-01T06:0012443172-51.3-74.433716
2008-01-01T06:0012462171-51.2-74.333717
2008-01-01T06:0012481171-51.1-74.233617
2008-01-01T06:0012502170-51.0-74.233517
2008-01-01T06:0012523170-51.0-74.233417
2008-01-01T06:0012544169-50.8-74.033316
2008-01-01T06:0012565169-50.9-74.133316
2008-01-01T06:0012586168-50.9-74.133216
2008-01-01T06:0012607167-50.9-74.133215
2008-01-01T06:0012627167-50.7-73.933115
2008-01-01T06:0012649166-50.7-73.933015
2008-01-01T06:0012672166-50.9-74.133014
2008-01-01T06:0012695165-51.1-74.232914
2008-01-01T06:0012718165-51.1-74.232914
2008-01-01T06:0012740164-51.0-74.233014
2008-01-01T06:0012763164-50.6-73.833113
2008-01-01T06:0012787163-50.5-73.833213
2008-01-01T06:0012811162-50.3-73.633412
2008-01-01T06:0012836162-50.2-73.533511
2008-01-01T06:0012860161-50.1-73.433710
2008-01-01T06:0012885161-49.8-73.23399
2008-01-01T06:0012908160-49.0-72.63409
2008-01-01T06:0012932159-48.7-72.33428
2008-01-01T06:0012955159-48.9-72.53448
2008-01-01T06:0012978158-48.9-72.53448
2008-01-01T06:0013001158-49.1-72.63459
2008-01-01T06:0013025157-49.2-72.73469
2008-01-01T06:0013048157-49.3-72.83479
2008-01-01T06:0013073156-49.4-72.93489
2008-01-01T06:0013098155-49.5-73.03499
2008-01-01T06:0013120155-49.5-73.03509
2008-01-01T06:0013144154-49.5-73.03519
2008-01-01T06:0013167154-49.4-71.43529
2008-01-01T06:0013192153-49.3-72.83528
2008-01-01T06:0013217153-49.4-72.93528
2008-01-01T06:0013244152-49.6-73.03528
2008-01-01T06:0013269151-49.7-73.13518
2008-01-01T06:0013294151-49.8-73.23497
2008-01-01T06:0013317150-50.1-73.43478
2008-01-01T06:0013341150-50.2-73.53458
2008-01-01T06:0013366149-50.4-73.73428
2008-01-01T06:0013389149-50.6-73.83409
2008-01-01T06:0013412148-50.6-73.833810
2008-01-01T06:0013436148-50.8-74.033610
2008-01-01T06:0013459147-50.8-74.033411
2008-01-01T06:0013482146-50.9-72.633311
2008-01-01T06:0013507146-51.1-74.233110
2008-01-01T06:0013528145-51.2-74.332910
2008-01-01T06:0013551145-51.4-74.532810

Only the first 2000 rows were shown. To view the complete dataset, download it as tab-delimited text. You can still view the full matrix in your browser, but be aware that this may crash the browser due to the huge size.